<?xml version="1.0" encoding="UTF-8" standalone="no" ?>
<gpx xmlns="http://www.topografix.com/GPX/1/1" xmlns:xsi="http://www.w3.org/2001/XMLSchema-instance" xsi:schemaLocation="http://www.topografix.com/GPX/1/1 http://www.topografix.com/GPX/1/1/gpx.xsd" version="1.1" creator="VisuGPX - https://www.visugpx.com">
  <metadata>
    <name>GTJ Labergement &amp;gt; Bellegarde</name>
  </metadata>
  <trk>
    <name><![CDATA[GTJ Labergement &gt; Bellegarde_4]]></name>
    <trkseg>
      <trkpt lat="46.68086" lon="6.13442">
        <ele>995.663</ele>
        <time>2014-06-13T08:46:25Z</time>
      </trkpt>
      <trkpt lat="46.68086" lon="6.13442">
        <ele>995.663</ele>
        <time>2014-06-13T08:46:25Z</time>
      </trkpt>
      <trkpt lat="46.68044" lon="6.13417">
        <ele>996.567</ele>
        <time>2014-06-13T08:47:03Z</time>
      </trkpt>
      <trkpt lat="46.67963" lon="6.13328">
        <ele>994.162</ele>
        <time>2014-06-13T08:48:23Z</time>
      </trkpt>
      <trkpt lat="46.67937" lon="6.13337">
        <ele>993.719</ele>
        <time>2014-06-13T08:48:53Z</time>
      </trkpt>
      <trkpt lat="46.67881" lon="6.13417">
        <ele>994.654</ele>
        <time>2014-06-13T08:49:58Z</time>
      </trkpt>
      <trkpt lat="46.67735" lon="6.13756">
        <ele>999.453</ele>
        <time>2014-06-13T08:53:42Z</time>
      </trkpt>
      <trkpt lat="46.67672" lon="6.13834">
        <ele>1001.465</ele>
        <time>2014-06-13T08:54:49Z</time>
      </trkpt>
      <trkpt lat="46.67641" lon="6.13841">
        <ele>1002.311</ele>
        <time>2014-06-13T08:55:10Z</time>
      </trkpt>
      <trkpt lat="46.67604" lon="6.13828">
        <ele>1003.321</ele>
        <time>2014-06-13T08:55:38Z</time>
      </trkpt>
      <trkpt lat="46.67507" lon="6.13757">
        <ele>1005.703</ele>
        <time>2014-06-13T08:57:02Z</time>
      </trkpt>
      <trkpt lat="46.6743" lon="6.13751">
        <ele>1009.007</ele>
        <time>2014-06-13T08:58:09Z</time>
      </trkpt>
      <trkpt lat="46.6737" lon="6.13511">
        <ele>1011.438</ele>
        <time>2014-06-13T09:00:41Z</time>
      </trkpt>
      <trkpt lat="46.67251" lon="6.13228">
        <ele>1017.752</ele>
        <time>2014-06-13T09:03:38Z</time>
      </trkpt>
      <trkpt lat="46.67156" lon="6.13168">
        <ele>1020.127</ele>
        <time>2014-06-13T09:04:58Z</time>
      </trkpt>
      <trkpt lat="46.67048" lon="6.13047">
        <ele>1022.524</ele>
        <time>2014-06-13T09:06:44Z</time>
      </trkpt>
      <trkpt lat="46.66965" lon="6.12987">
        <ele>1030.749</ele>
        <time>2014-06-13T09:08:04Z</time>
      </trkpt>
      <trkpt lat="46.6671" lon="6.12571">
        <ele>1057.638</ele>
        <time>2014-06-13T09:13:56Z</time>
      </trkpt>
      <trkpt lat="46.66531" lon="6.12113">
        <ele>1045.62</ele>
        <time>2014-06-13T09:18:33Z</time>
      </trkpt>
      <trkpt lat="46.66517" lon="6.11881">
        <ele>1046.592</ele>
        <time>2014-06-13T09:20:56Z</time>
      </trkpt>
      <trkpt lat="46.66471" lon="6.11797">
        <ele>1045.673</ele>
        <time>2014-06-13T09:21:47Z</time>
      </trkpt>
      <trkpt lat="46.664" lon="6.11699">
        <ele>1049.42</ele>
        <time>2014-06-13T09:23:05Z</time>
      </trkpt>
      <trkpt lat="46.6632" lon="6.1176">
        <ele>1058.607</ele>
        <time>2014-06-13T09:24:38Z</time>
      </trkpt>
      <trkpt lat="46.66261" lon="6.11755">
        <ele>1065.316</ele>
        <time>2014-06-13T09:25:35Z</time>
      </trkpt>
      <trkpt lat="46.66214" lon="6.11718">
        <ele>1065.85</ele>
        <time>2014-06-13T09:26:23Z</time>
      </trkpt>
      <trkpt lat="46.66201" lon="6.11616">
        <ele>1058.655</ele>
        <time>2014-06-13T09:27:35Z</time>
      </trkpt>
      <trkpt lat="46.66222" lon="6.11508">
        <ele>1049.452</ele>
        <time>2014-06-13T09:28:55Z</time>
      </trkpt>
      <trkpt lat="46.66172" lon="6.1134">
        <ele>1048.547</ele>
        <time>2014-06-13T09:31:07Z</time>
      </trkpt>
      <trkpt lat="46.66174" lon="6.11282">
        <ele>1052.816</ele>
        <time>2014-06-13T09:31:58Z</time>
      </trkpt>
      <trkpt lat="46.66152" lon="6.11217">
        <ele>1057.138</ele>
        <time>2014-06-13T09:32:52Z</time>
      </trkpt>
      <trkpt lat="46.66089" lon="6.11096">
        <ele>1065.865</ele>
        <time>2014-06-13T09:35:16Z</time>
      </trkpt>
      <trkpt lat="46.66066" lon="6.11003">
        <ele>1070.168</ele>
        <time>2014-06-13T09:36:18Z</time>
      </trkpt>
      <trkpt lat="46.66008" lon="6.1095">
        <ele>1071.514</ele>
        <time>2014-06-13T09:37:20Z</time>
      </trkpt>
      <trkpt lat="46.65931" lon="6.10823">
        <ele>1069.607</ele>
        <time>2014-06-13T09:39:13Z</time>
      </trkpt>
      <trkpt lat="46.65823" lon="6.10578">
        <ele>1073.593</ele>
        <time>2014-06-13T09:42:05Z</time>
      </trkpt>
      <trkpt lat="46.65688" lon="6.10696">
        <ele>1090.387</ele>
        <time>2014-06-13T09:45:09Z</time>
      </trkpt>
      <trkpt lat="46.65645" lon="6.10684">
        <ele>1094.122</ele>
        <time>2014-06-13T09:45:58Z</time>
      </trkpt>
      <trkpt lat="46.65585" lon="6.10643">
        <ele>1100.979</ele>
        <time>2014-06-13T09:47:27Z</time>
      </trkpt>
      <trkpt lat="46.65563" lon="6.10656">
        <ele>1104.764</ele>
        <time>2014-06-13T09:48:03Z</time>
      </trkpt>
      <trkpt lat="46.65578" lon="6.10716">
        <ele>1108.583</ele>
        <time>2014-06-13T09:49:00Z</time>
      </trkpt>
      <trkpt lat="46.65684" lon="6.10893">
        <ele>1122.065</ele>
        <time>2014-06-13T09:52:27Z</time>
      </trkpt>
      <trkpt lat="46.65701" lon="6.10953">
        <ele>1124.972</ele>
        <time>2014-06-13T09:53:17Z</time>
      </trkpt>
      <trkpt lat="46.65703" lon="6.11073">
        <ele>1131.613</ele>
        <time>2014-06-13T09:55:00Z</time>
      </trkpt>
      <trkpt lat="46.65685" lon="6.11119">
        <ele>1133.114</ele>
        <time>2014-06-13T09:55:31Z</time>
      </trkpt>
      <trkpt lat="46.65636" lon="6.11177">
        <ele>1136.407</ele>
        <time>2014-06-13T09:56:27Z</time>
      </trkpt>
      <trkpt lat="46.65592" lon="6.11179">
        <ele>1140.354</ele>
        <time>2014-06-13T09:57:11Z</time>
      </trkpt>
      <trkpt lat="46.65556" lon="6.11137">
        <ele>1144.158</ele>
        <time>2014-06-13T09:58:04Z</time>
      </trkpt>
      <trkpt lat="46.65505" lon="6.11109">
        <ele>1150.893</ele>
        <time>2014-06-13T09:59:11Z</time>
      </trkpt>
      <trkpt lat="46.65423" lon="6.11217">
        <ele>1163.37</ele>
        <time>2014-06-13T10:01:29Z</time>
      </trkpt>
      <trkpt lat="46.65388" lon="6.11236">
        <ele>1166.715</ele>
        <time>2014-06-13T10:02:18Z</time>
      </trkpt>
      <trkpt lat="46.65363" lon="6.11271">
        <ele>1167.724</ele>
        <time>2014-06-13T10:02:53Z</time>
      </trkpt>
      <trkpt lat="46.65343" lon="6.11277">
        <ele>1169.636</ele>
        <time>2014-06-13T10:03:10Z</time>
      </trkpt>
      <trkpt lat="46.65324" lon="6.11263">
        <ele>1171.011</ele>
        <time>2014-06-13T10:03:27Z</time>
      </trkpt>
      <trkpt lat="46.65282" lon="6.11206">
        <ele>1172.521</ele>
        <time>2014-06-13T10:04:15Z</time>
      </trkpt>
      <trkpt lat="46.65247" lon="6.11187">
        <ele>1174.903</ele>
        <time>2014-06-13T10:04:53Z</time>
      </trkpt>
      <trkpt lat="46.65157" lon="6.11251">
        <ele>1177.807</ele>
        <time>2014-06-13T10:06:28Z</time>
      </trkpt>
      <trkpt lat="46.6496" lon="6.11335">
        <ele>1194.628</ele>
        <time>2014-06-13T10:09:50Z</time>
      </trkpt>
      <trkpt lat="46.64942" lon="6.11365">
        <ele>1195.192</ele>
        <time>2014-06-13T10:10:14Z</time>
      </trkpt>
      <trkpt lat="46.64889" lon="6.11396">
        <ele>1193.157</ele>
        <time>2014-06-13T10:10:53Z</time>
      </trkpt>
      <trkpt lat="46.64861" lon="6.11346">
        <ele>1196.054</ele>
        <time>2014-06-13T10:11:28Z</time>
      </trkpt>
      <trkpt lat="46.64813" lon="6.11321">
        <ele>1195.149</ele>
        <time>2014-06-13T10:12:13Z</time>
      </trkpt>
      <trkpt lat="46.64564" lon="6.1142">
        <ele>1193.138</ele>
        <time>2014-06-13T10:15:36Z</time>
      </trkpt>
      <trkpt lat="46.64432" lon="6.11614">
        <ele>1191.27</ele>
        <time>2014-06-13T10:18:01Z</time>
      </trkpt>
      <trkpt lat="46.64394" lon="6.11637">
        <ele>1192.774</ele>
        <time>2014-06-13T10:18:48Z</time>
      </trkpt>
      <trkpt lat="46.6425" lon="6.11785">
        <ele>1205.256</ele>
        <time>2014-06-13T10:21:30Z</time>
      </trkpt>
      <trkpt lat="46.64107" lon="6.11868">
        <ele>1212.821</ele>
        <time>2014-06-13T10:23:45Z</time>
      </trkpt>
      <trkpt lat="46.64" lon="6.11834">
        <ele>1211.407</ele>
        <time>2014-06-13T10:25:14Z</time>
      </trkpt>
      <trkpt lat="46.63994" lon="6.11875">
        <ele>1211.424</ele>
        <time>2014-06-13T10:25:43Z</time>
      </trkpt>
      <trkpt lat="46.63957" lon="6.11878">
        <ele>1211.458</ele>
        <time>2014-06-13T10:26:17Z</time>
      </trkpt>
      <trkpt lat="46.63892" lon="6.11829">
        <ele>1210.433</ele>
        <time>2014-06-13T10:27:12Z</time>
      </trkpt>
      <trkpt lat="46.63831" lon="6.11733">
        <ele>1209.59</ele>
        <time>2014-06-13T10:28:24Z</time>
      </trkpt>
      <trkpt lat="46.63785" lon="6.11596">
        <ele>1208.055</ele>
        <time>2014-06-13T10:29:46Z</time>
      </trkpt>
      <trkpt lat="46.63752" lon="6.11395">
        <ele>1208.074</ele>
        <time>2014-06-13T10:31:33Z</time>
      </trkpt>
      <trkpt lat="46.63712" lon="6.11286">
        <ele>1208.026</ele>
        <time>2014-06-13T10:32:37Z</time>
      </trkpt>
      <trkpt lat="46.63675" lon="6.11225">
        <ele>1206.658</ele>
        <time>2014-06-13T10:33:17Z</time>
      </trkpt>
      <trkpt lat="46.63597" lon="6.11214">
        <ele>1207.652</ele>
        <time>2014-06-13T10:34:15Z</time>
      </trkpt>
      <trkpt lat="46.63559" lon="6.11155">
        <ele>1207.617</ele>
        <time>2014-06-13T10:34:52Z</time>
      </trkpt>
      <trkpt lat="46.63583" lon="6.10997">
        <ele>1207.607</ele>
        <time>2014-06-13T10:36:08Z</time>
      </trkpt>
      <trkpt lat="46.63554" lon="6.1095">
        <ele>1206.692</ele>
        <time>2014-06-13T10:36:44Z</time>
      </trkpt>
      <trkpt lat="46.63465" lon="6.10926">
        <ele>1205.696</ele>
        <time>2014-06-13T10:37:51Z</time>
      </trkpt>
      <trkpt lat="46.63423" lon="6.10937">
        <ele>1205.681</ele>
        <time>2014-06-13T10:38:31Z</time>
      </trkpt>
      <trkpt lat="46.6334" lon="6.11159">
        <ele>1206.648</ele>
        <time>2014-06-13T10:41:08Z</time>
      </trkpt>
      <trkpt lat="46.63228" lon="6.11287">
        <ele>1210.043</ele>
        <time>2014-06-13T10:42:47Z</time>
      </trkpt>
      <trkpt lat="46.63151" lon="6.11329">
        <ele>1215.732</ele>
        <time>2014-06-13T10:43:58Z</time>
      </trkpt>
      <trkpt lat="46.63112" lon="6.11295">
        <ele>1215.744</ele>
        <time>2014-06-13T10:44:33Z</time>
      </trkpt>
      <trkpt lat="46.63054" lon="6.11081">
        <ele>1202.874</ele>
        <time>2014-06-13T10:46:37Z</time>
      </trkpt>
      <trkpt lat="46.63028" lon="6.11037">
        <ele>1201.356</ele>
        <time>2014-06-13T10:47:09Z</time>
      </trkpt>
      <trkpt lat="46.62927" lon="6.10966">
        <ele>1199.421</ele>
        <time>2014-06-13T10:48:51Z</time>
      </trkpt>
      <trkpt lat="46.62892" lon="6.1092">
        <ele>1197.907</ele>
        <time>2014-06-13T10:49:33Z</time>
      </trkpt>
      <trkpt lat="46.62881" lon="6.10856">
        <ele>1194.164</ele>
        <time>2014-06-13T10:50:03Z</time>
      </trkpt>
      <trkpt lat="46.62835" lon="6.10885">
        <ele>1187.958</ele>
        <time>2014-06-13T10:50:51Z</time>
      </trkpt>
      <trkpt lat="46.62803" lon="6.10822">
        <ele>1184.023</ele>
        <time>2014-06-13T10:51:33Z</time>
      </trkpt>
      <trkpt lat="46.62738" lon="6.10921">
        <ele>1173.97</ele>
        <time>2014-06-13T10:53:04Z</time>
      </trkpt>
      <trkpt lat="46.62674" lon="6.10957">
        <ele>1169.645</ele>
        <time>2014-06-13T10:53:43Z</time>
      </trkpt>
      <trkpt lat="46.62648" lon="6.10951">
        <ele>1169.194</ele>
        <time>2014-06-13T10:54:02Z</time>
      </trkpt>
      <trkpt lat="46.62592" lon="6.109">
        <ele>1170.586</ele>
        <time>2014-06-13T10:54:56Z</time>
      </trkpt>
      <trkpt lat="46.62481" lon="6.10927">
        <ele>1164.378</ele>
        <time>2014-06-13T10:56:29Z</time>
      </trkpt>
      <trkpt lat="46.62429" lon="6.10916">
        <ele>1158.133</ele>
        <time>2014-06-13T10:58:02Z</time>
      </trkpt>
      <trkpt lat="46.62356" lon="6.10776">
        <ele>1150.826</ele>
        <time>2014-06-13T10:59:54Z</time>
      </trkpt>
      <trkpt lat="46.62258" lon="6.10477">
        <ele>1138.807</ele>
        <time>2014-06-13T11:02:56Z</time>
      </trkpt>
      <trkpt lat="46.6222" lon="6.10441">
        <ele>1137.964</ele>
        <time>2014-06-13T11:03:42Z</time>
      </trkpt>
      <trkpt lat="46.62192" lon="6.1045">
        <ele>1138.828</ele>
        <time>2014-06-13T11:04:09Z</time>
      </trkpt>
      <trkpt lat="46.62031" lon="6.1058">
        <ele>1122.583</ele>
        <time>2014-06-13T11:07:06Z</time>
      </trkpt>
      <trkpt lat="46.61941" lon="6.10547">
        <ele>1113.88</ele>
        <time>2014-06-13T11:08:29Z</time>
      </trkpt>
      <trkpt lat="46.61882" lon="6.10495">
        <ele>1106.185</ele>
        <time>2014-06-13T11:09:33Z</time>
      </trkpt>
      <trkpt lat="46.61806" lon="6.10518">
        <ele>1106.654</ele>
        <time>2014-06-13T11:10:58Z</time>
      </trkpt>
      <trkpt lat="46.61744" lon="6.10502">
        <ele>1102.386</ele>
        <time>2014-06-13T11:11:51Z</time>
      </trkpt>
      <trkpt lat="46.61707" lon="6.10523">
        <ele>1099.483</ele>
        <time>2014-06-13T11:12:21Z</time>
      </trkpt>
      <trkpt lat="46.6168" lon="6.10521">
        <ele>1098.425</ele>
        <time>2014-06-13T11:12:47Z</time>
      </trkpt>
      <trkpt lat="46.61639" lon="6.10559">
        <ele>1098.017</ele>
        <time>2014-06-13T11:13:28Z</time>
      </trkpt>
      <trkpt lat="46.61568" lon="6.10568">
        <ele>1095.607</ele>
        <time>2014-06-13T11:14:23Z</time>
      </trkpt>
      <trkpt lat="46.61446" lon="6.10645">
        <ele>1092.795</ele>
        <time>2014-06-13T11:16:14Z</time>
      </trkpt>
      <trkpt lat="46.61415" lon="6.1064">
        <ele>1093.619</ele>
        <time>2014-06-13T11:16:44Z</time>
      </trkpt>
      <trkpt lat="46.61372" lon="6.10582">
        <ele>1090.344</ele>
        <time>2014-06-13T11:17:36Z</time>
      </trkpt>
      <trkpt lat="46.61232" lon="6.10539">
        <ele>1093.251</ele>
        <time>2014-06-13T11:19:44Z</time>
      </trkpt>
      <trkpt lat="46.61197" lon="6.10414">
        <ele>1092.746</ele>
        <time>2014-06-13T11:20:55Z</time>
      </trkpt>
      <trkpt lat="46.61159" lon="6.10386">
        <ele>1091.255</ele>
        <time>2014-06-13T11:21:35Z</time>
      </trkpt>
      <trkpt lat="46.61099" lon="6.10403">
        <ele>1090.367</ele>
        <time>2014-06-13T11:22:36Z</time>
      </trkpt>
      <trkpt lat="46.60965" lon="6.10476">
        <ele>1086.929</ele>
        <time>2014-06-13T11:24:31Z</time>
      </trkpt>
      <trkpt lat="46.608" lon="6.1061">
        <ele>1085</ele>
        <time>2014-06-13T11:27:18Z</time>
      </trkpt>
      <trkpt lat="46.60692" lon="6.10676">
        <ele>1084.02</ele>
        <time>2014-06-13T11:29:02Z</time>
      </trkpt>
      <trkpt lat="46.60271" lon="6.10672">
        <ele>1079.207</ele>
        <time>2014-06-13T11:34:51Z</time>
      </trkpt>
      <trkpt lat="46.60127" lon="6.10712">
        <ele>1077.879</ele>
        <time>2014-06-13T11:36:58Z</time>
      </trkpt>
      <trkpt lat="46.60075" lon="6.10711">
        <ele>1077.323</ele>
        <time>2014-06-13T11:37:54Z</time>
      </trkpt>
      <trkpt lat="46.6006" lon="6.10864">
        <ele>1078.388</ele>
        <time>2014-06-13T11:40:08Z</time>
      </trkpt>
      <trkpt lat="46.59942" lon="6.1133">
        <ele>1094.145</ele>
        <time>2014-06-13T11:45:37Z</time>
      </trkpt>
      <trkpt lat="46.59882" lon="6.11402">
        <ele>1089.88</ele>
        <time>2014-06-13T11:46:59Z</time>
      </trkpt>
      <trkpt lat="46.59802" lon="6.11411">
        <ele>1093.279</ele>
        <time>2014-06-13T11:48:54Z</time>
      </trkpt>
      <trkpt lat="46.59826" lon="6.11404">
        <ele>1093.621</ele>
        <time>2014-06-13T11:49:49Z</time>
      </trkpt>
      <trkpt lat="46.59822" lon="6.11391">
        <ele>1094.166</ele>
        <time>2014-06-13T11:50:09Z</time>
      </trkpt>
      <trkpt lat="46.59844" lon="6.11363">
        <ele>1093.629</ele>
        <time>2014-06-13T11:50:43Z</time>
      </trkpt>
      <trkpt lat="46.59794" lon="6.11417">
        <ele>1093.621</ele>
        <time>2014-06-13T11:51:10Z</time>
      </trkpt>
      <trkpt lat="46.59812" lon="6.11379">
        <ele>1097.007</ele>
        <time>2014-06-13T11:53:43Z</time>
      </trkpt>
      <trkpt lat="46.60026" lon="6.10511">
        <ele>1076.688</ele>
      </trkpt>
      <trkpt lat="46.60025" lon="6.10529">
        <ele>1076.17</ele>
      </trkpt>
      <trkpt lat="46.60027" lon="6.10546">
        <ele>1076.02</ele>
      </trkpt>
      <trkpt lat="46.60037" lon="6.10574">
        <ele>1075.216</ele>
      </trkpt>
      <trkpt lat="46.60044" lon="6.10599">
        <ele>1074.199</ele>
      </trkpt>
      <trkpt lat="46.60051" lon="6.10614">
        <ele>1073.611</ele>
      </trkpt>
      <trkpt lat="46.60056" lon="6.10629">
        <ele>1072.684</ele>
      </trkpt>
      <trkpt lat="46.60061" lon="6.10648">
        <ele>1072</ele>
      </trkpt>
      <trkpt lat="46.60067" lon="6.10668">
        <ele>1071.962</ele>
      </trkpt>
      <trkpt lat="46.60072" lon="6.10688">
        <ele>1071.243</ele>
      </trkpt>
      <trkpt lat="46.60076" lon="6.10704">
        <ele>1071</ele>
      </trkpt>
      <trkpt lat="46.60074" lon="6.10735">
        <ele>1071</ele>
      </trkpt>
      <trkpt lat="46.60071" lon="6.10769">
        <ele>1071</ele>
      </trkpt>
      <trkpt lat="46.60071" lon="6.10802">
        <ele>1071.872</ele>
      </trkpt>
      <trkpt lat="46.60069" lon="6.10828">
        <ele>1072</ele>
      </trkpt>
      <trkpt lat="46.60066" lon="6.10842">
        <ele>1072</ele>
      </trkpt>
      <trkpt lat="46.60057" lon="6.10866">
        <ele>1072</ele>
      </trkpt>
      <trkpt lat="46.60046" lon="6.10895">
        <ele>1072</ele>
      </trkpt>
      <trkpt lat="46.60036" lon="6.10925">
        <ele>1072</ele>
      </trkpt>
      <trkpt lat="46.60028" lon="6.10956">
        <ele>1072</ele>
      </trkpt>
      <trkpt lat="46.60013" lon="6.11015">
        <ele>1072.298</ele>
      </trkpt>
      <trkpt lat="46.60001" lon="6.1106">
        <ele>1074.128</ele>
      </trkpt>
      <trkpt lat="46.59996" lon="6.11081">
        <ele>1075.066</ele>
      </trkpt>
      <trkpt lat="46.59993" lon="6.11104">
        <ele>1075.99</ele>
      </trkpt>
      <trkpt lat="46.59985" lon="6.11129">
        <ele>1077.837</ele>
      </trkpt>
      <trkpt lat="46.59979" lon="6.11161">
        <ele>1079.768</ele>
      </trkpt>
      <trkpt lat="46.59973" lon="6.11189">
        <ele>1082.391</ele>
      </trkpt>
      <trkpt lat="46.59967" lon="6.11229">
        <ele>1085.252</ele>
      </trkpt>
      <trkpt lat="46.59969" lon="6.11244">
        <ele>1085.786</ele>
      </trkpt>
      <trkpt lat="46.59965" lon="6.11272">
        <ele>1086.985</ele>
      </trkpt>
      <trkpt lat="46.59957" lon="6.11305">
        <ele>1087.006</ele>
      </trkpt>
      <trkpt lat="46.59938" lon="6.11343">
        <ele>1088.856</ele>
      </trkpt>
      <trkpt lat="46.59925" lon="6.11362">
        <ele>1088.534</ele>
      </trkpt>
      <trkpt lat="46.59913" lon="6.11374">
        <ele>1087.46</ele>
      </trkpt>
      <trkpt lat="46.59905" lon="6.11387">
        <ele>1087.047</ele>
      </trkpt>
      <trkpt lat="46.59899" lon="6.11391">
        <ele>1087</ele>
      </trkpt>
      <trkpt lat="46.59885" lon="6.114">
        <ele>1087</ele>
      </trkpt>
      <trkpt lat="46.59872" lon="6.11401">
        <ele>1087</ele>
      </trkpt>
      <trkpt lat="46.59863" lon="6.114">
        <ele>1087</ele>
      </trkpt>
      <trkpt lat="46.5985" lon="6.11401">
        <ele>1087</ele>
      </trkpt>
      <trkpt lat="46.5984" lon="6.114">
        <ele>1087</ele>
      </trkpt>
      <trkpt lat="46.59827" lon="6.11406">
        <ele>1087</ele>
      </trkpt>
      <trkpt lat="46.59817" lon="6.11412">
        <ele>1087</ele>
      </trkpt>
      <trkpt lat="46.59808" lon="6.11417">
        <ele>1087</ele>
      </trkpt>
      <trkpt lat="46.59799" lon="6.11425">
        <ele>1087</ele>
      </trkpt>
      <trkpt lat="46.59796" lon="6.11431">
        <ele>1087</ele>
      </trkpt>
      <trkpt lat="46.59788" lon="6.11436">
        <ele>1087</ele>
      </trkpt>
      <trkpt lat="46.59784" lon="6.11416">
        <ele>1087</ele>
      </trkpt>
      <trkpt lat="46.59779" lon="6.11401">
        <ele>1087</ele>
      </trkpt>
      <trkpt lat="46.59766" lon="6.11385">
        <ele>1087</ele>
      </trkpt>
      <trkpt lat="46.59756" lon="6.11368">
        <ele>1087</ele>
      </trkpt>
      <trkpt lat="46.59748" lon="6.11351">
        <ele>1086.24</ele>
      </trkpt>
      <trkpt lat="46.59737" lon="6.11336">
        <ele>1085.132</ele>
      </trkpt>
      <trkpt lat="46.59731" lon="6.11326">
        <ele>1084.522</ele>
      </trkpt>
      <trkpt lat="46.59727" lon="6.11324">
        <ele>1084.348</ele>
      </trkpt>
      <trkpt lat="46.59721" lon="6.1133">
        <ele>1084.679</ele>
      </trkpt>
      <trkpt lat="46.59714" lon="6.11336">
        <ele>1084.779</ele>
      </trkpt>
      <trkpt lat="46.59705" lon="6.11335">
        <ele>1084.433</ele>
      </trkpt>
      <trkpt lat="46.59698" lon="6.1133">
        <ele>1083.873</ele>
      </trkpt>
      <trkpt lat="46.59694" lon="6.11325">
        <ele>1083.328</ele>
      </trkpt>
      <trkpt lat="46.59688" lon="6.11321">
        <ele>1082.76</ele>
      </trkpt>
      <trkpt lat="46.59683" lon="6.11324">
        <ele>1082.603</ele>
      </trkpt>
      <trkpt lat="46.59668" lon="6.11347">
        <ele>1082.619</ele>
      </trkpt>
      <trkpt lat="46.59652" lon="6.11389">
        <ele>1081.45</ele>
      </trkpt>
      <trkpt lat="46.59632" lon="6.11436">
        <ele>1078.249</ele>
      </trkpt>
      <trkpt lat="46.59615" lon="6.11473">
        <ele>1075.389</ele>
      </trkpt>
      <trkpt lat="46.59599" lon="6.11494">
        <ele>1075.795</ele>
      </trkpt>
      <trkpt lat="46.59589" lon="6.11502">
        <ele>1076.063</ele>
      </trkpt>
      <trkpt lat="46.59579" lon="6.11504">
        <ele>1076.297</ele>
      </trkpt>
      <trkpt lat="46.59566" lon="6.11503">
        <ele>1076.661</ele>
      </trkpt>
      <trkpt lat="46.59553" lon="6.11496">
        <ele>1077</ele>
      </trkpt>
      <trkpt lat="46.59542" lon="6.11489">
        <ele>1077</ele>
      </trkpt>
      <trkpt lat="46.59526" lon="6.11484">
        <ele>1077</ele>
      </trkpt>
      <trkpt lat="46.59515" lon="6.1148">
        <ele>1077</ele>
      </trkpt>
      <trkpt lat="46.595" lon="6.11479">
        <ele>1077</ele>
      </trkpt>
      <trkpt lat="46.59477" lon="6.11483">
        <ele>1077</ele>
      </trkpt>
      <trkpt lat="46.59452" lon="6.11487">
        <ele>1076.272</ele>
      </trkpt>
      <trkpt lat="46.59437" lon="6.1149">
        <ele>1076.16</ele>
      </trkpt>
      <trkpt lat="46.59421" lon="6.11493">
        <ele>1076.63</ele>
      </trkpt>
      <trkpt lat="46.59408" lon="6.11492">
        <ele>1076.812</ele>
      </trkpt>
      <trkpt lat="46.59396" lon="6.11493">
        <ele>1076.941</ele>
      </trkpt>
      <trkpt lat="46.59383" lon="6.11496">
        <ele>1077</ele>
      </trkpt>
      <trkpt lat="46.59373" lon="6.115">
        <ele>1077</ele>
      </trkpt>
      <trkpt lat="46.59358" lon="6.11517">
        <ele>1077.599</ele>
      </trkpt>
      <trkpt lat="46.59346" lon="6.11535">
        <ele>1078.275</ele>
      </trkpt>
      <trkpt lat="46.59336" lon="6.1155">
        <ele>1078.78</ele>
      </trkpt>
      <trkpt lat="46.59326" lon="6.11565">
        <ele>1079.095</ele>
      </trkpt>
      <trkpt lat="46.59316" lon="6.11579">
        <ele>1079.525</ele>
      </trkpt>
      <trkpt lat="46.593" lon="6.11598">
        <ele>1080.302</ele>
      </trkpt>
      <trkpt lat="46.59288" lon="6.11611">
        <ele>1080.379</ele>
      </trkpt>
      <trkpt lat="46.59277" lon="6.11627">
        <ele>1080.557</ele>
      </trkpt>
      <trkpt lat="46.59267" lon="6.11638">
        <ele>1080.565</ele>
      </trkpt>
      <trkpt lat="46.59257" lon="6.11663">
        <ele>1081.126</ele>
      </trkpt>
      <trkpt lat="46.59253" lon="6.11689">
        <ele>1082.627</ele>
      </trkpt>
      <trkpt lat="46.59248" lon="6.11713">
        <ele>1083.642</ele>
      </trkpt>
      <trkpt lat="46.59238" lon="6.11743">
        <ele>1084.764</ele>
      </trkpt>
      <trkpt lat="46.5923" lon="6.11769">
        <ele>1085.686</ele>
      </trkpt>
      <trkpt lat="46.5922" lon="6.11793">
        <ele>1087.086</ele>
      </trkpt>
      <trkpt lat="46.59206" lon="6.11823">
        <ele>1088.624</ele>
      </trkpt>
      <trkpt lat="46.59189" lon="6.11853">
        <ele>1091.847</ele>
      </trkpt>
      <trkpt lat="46.59173" lon="6.11883">
        <ele>1097.392</ele>
      </trkpt>
      <trkpt lat="46.5916" lon="6.11913">
        <ele>1102.57</ele>
      </trkpt>
      <trkpt lat="46.59142" lon="6.11944">
        <ele>1108.544</ele>
      </trkpt>
      <trkpt lat="46.59134" lon="6.11955">
        <ele>1111.021</ele>
      </trkpt>
      <trkpt lat="46.59123" lon="6.11959">
        <ele>1113.096</ele>
      </trkpt>
      <trkpt lat="46.59114" lon="6.11959">
        <ele>1114.494</ele>
      </trkpt>
      <trkpt lat="46.59105" lon="6.11951">
        <ele>1115.934</ele>
      </trkpt>
      <trkpt lat="46.59097" lon="6.11939">
        <ele>1116.69</ele>
      </trkpt>
      <trkpt lat="46.59088" lon="6.11929">
        <ele>1117.811</ele>
      </trkpt>
      <trkpt lat="46.59081" lon="6.11912">
        <ele>1118.096</ele>
      </trkpt>
      <trkpt lat="46.59072" lon="6.11903">
        <ele>1119.033</ele>
      </trkpt>
      <trkpt lat="46.59061" lon="6.11891">
        <ele>1120.11</ele>
      </trkpt>
      <trkpt lat="46.59054" lon="6.11883">
        <ele>1120.664</ele>
      </trkpt>
      <trkpt lat="46.59042" lon="6.11875">
        <ele>1121.007</ele>
      </trkpt>
      <trkpt lat="46.59032" lon="6.11868">
        <ele>1121.199</ele>
      </trkpt>
      <trkpt lat="46.59023" lon="6.11864">
        <ele>1121.908</ele>
      </trkpt>
      <trkpt lat="46.59013" lon="6.1186">
        <ele>1123.063</ele>
      </trkpt>
      <trkpt lat="46.59005" lon="6.1186">
        <ele>1124.156</ele>
      </trkpt>
      <trkpt lat="46.58996" lon="6.11859">
        <ele>1125.393</ele>
      </trkpt>
      <trkpt lat="46.58986" lon="6.11853">
        <ele>1126.293</ele>
      </trkpt>
      <trkpt lat="46.58977" lon="6.11845">
        <ele>1126.571</ele>
      </trkpt>
      <trkpt lat="46.58969" lon="6.11836">
        <ele>1126.767</ele>
      </trkpt>
      <trkpt lat="46.58963" lon="6.11834">
        <ele>1127.35</ele>
      </trkpt>
      <trkpt lat="46.58958" lon="6.11828">
        <ele>1127.741</ele>
      </trkpt>
      <trkpt lat="46.58953" lon="6.11827">
        <ele>1128.241</ele>
      </trkpt>
      <trkpt lat="46.58948" lon="6.11831">
        <ele>1129.397</ele>
      </trkpt>
      <trkpt lat="46.58941" lon="6.11839">
        <ele>1130.863</ele>
      </trkpt>
      <trkpt lat="46.58935" lon="6.11842">
        <ele>1131.585</ele>
      </trkpt>
      <trkpt lat="46.58929" lon="6.11844">
        <ele>1132.307</ele>
      </trkpt>
      <trkpt lat="46.58918" lon="6.11844">
        <ele>1133.031</ele>
      </trkpt>
      <trkpt lat="46.58904" lon="6.11839">
        <ele>1133.885</ele>
      </trkpt>
      <trkpt lat="46.58899" lon="6.11839">
        <ele>1134.414</ele>
      </trkpt>
      <trkpt lat="46.58889" lon="6.11835">
        <ele>1135.132</ele>
      </trkpt>
      <trkpt lat="46.5888" lon="6.11834">
        <ele>1135.747</ele>
      </trkpt>
      <trkpt lat="46.58869" lon="6.11835">
        <ele>1136.658</ele>
      </trkpt>
      <trkpt lat="46.58857" lon="6.11838">
        <ele>1137.761</ele>
      </trkpt>
      <trkpt lat="46.58849" lon="6.11839">
        <ele>1138.447</ele>
      </trkpt>
      <trkpt lat="46.58836" lon="6.1184">
        <ele>1139.496</ele>
      </trkpt>
      <trkpt lat="46.58821" lon="6.11839">
        <ele>1139.557</ele>
      </trkpt>
      <trkpt lat="46.5881" lon="6.11838">
        <ele>1139.473</ele>
      </trkpt>
      <trkpt lat="46.58801" lon="6.11839">
        <ele>1139.444</ele>
      </trkpt>
      <trkpt lat="46.58787" lon="6.11838">
        <ele>1138.929</ele>
      </trkpt>
      <trkpt lat="46.58774" lon="6.11834">
        <ele>1138.852</ele>
      </trkpt>
      <trkpt lat="46.58763" lon="6.11826">
        <ele>1140.554</ele>
      </trkpt>
      <trkpt lat="46.58749" lon="6.1182">
        <ele>1142.733</ele>
      </trkpt>
      <trkpt lat="46.5874" lon="6.11813">
        <ele>1142.666</ele>
      </trkpt>
      <trkpt lat="46.58731" lon="6.11806">
        <ele>1142.437</ele>
      </trkpt>
      <trkpt lat="46.58723" lon="6.11802">
        <ele>1142.453</ele>
      </trkpt>
      <trkpt lat="46.58703" lon="6.11801">
        <ele>1143.131</ele>
      </trkpt>
      <trkpt lat="46.58686" lon="6.11801">
        <ele>1144.141</ele>
      </trkpt>
      <trkpt lat="46.58673" lon="6.11799">
        <ele>1144.83</ele>
      </trkpt>
      <trkpt lat="46.58654" lon="6.11791">
        <ele>1145.56</ele>
      </trkpt>
      <trkpt lat="46.58644" lon="6.11782">
        <ele>1145.219</ele>
      </trkpt>
      <trkpt lat="46.58629" lon="6.11773">
        <ele>1145.843</ele>
      </trkpt>
      <trkpt lat="46.58619" lon="6.11769">
        <ele>1146.882</ele>
      </trkpt>
      <trkpt lat="46.5861" lon="6.11763">
        <ele>1147.694</ele>
      </trkpt>
      <trkpt lat="46.58601" lon="6.11759">
        <ele>1148.872</ele>
      </trkpt>
      <trkpt lat="46.58591" lon="6.11757">
        <ele>1150.43</ele>
      </trkpt>
      <trkpt lat="46.58578" lon="6.11756">
        <ele>1152.521</ele>
      </trkpt>
      <trkpt lat="46.58564" lon="6.1175">
        <ele>1154.515</ele>
      </trkpt>
      <trkpt lat="46.5855" lon="6.1174">
        <ele>1155.715</ele>
      </trkpt>
      <trkpt lat="46.5854" lon="6.11731">
        <ele>1156.176</ele>
      </trkpt>
      <trkpt lat="46.58531" lon="6.11717">
        <ele>1156.12</ele>
      </trkpt>
      <trkpt lat="46.58522" lon="6.11707">
        <ele>1156.647</ele>
      </trkpt>
      <trkpt lat="46.58512" lon="6.11699">
        <ele>1157.199</ele>
      </trkpt>
      <trkpt lat="46.585" lon="6.11687">
        <ele>1157.531</ele>
      </trkpt>
      <trkpt lat="46.58492" lon="6.1167">
        <ele>1157.398</ele>
      </trkpt>
      <trkpt lat="46.58486" lon="6.11658">
        <ele>1157.424</ele>
      </trkpt>
      <trkpt lat="46.58476" lon="6.11643">
        <ele>1157.703</ele>
      </trkpt>
      <trkpt lat="46.58468" lon="6.11637">
        <ele>1158.227</ele>
      </trkpt>
      <trkpt lat="46.58457" lon="6.11612">
        <ele>1156.647</ele>
      </trkpt>
      <trkpt lat="46.58451" lon="6.11599">
        <ele>1155.535</ele>
      </trkpt>
      <trkpt lat="46.58448" lon="6.1159">
        <ele>1154.726</ele>
      </trkpt>
      <trkpt lat="46.58445" lon="6.11579">
        <ele>1153.5</ele>
      </trkpt>
      <trkpt lat="46.58435" lon="6.1156">
        <ele>1152.156</ele>
      </trkpt>
      <trkpt lat="46.58422" lon="6.11543">
        <ele>1151.226</ele>
      </trkpt>
      <trkpt lat="46.58403" lon="6.11517">
        <ele>1151.023</ele>
      </trkpt>
      <trkpt lat="46.58379" lon="6.11488">
        <ele>1154.266</ele>
      </trkpt>
      <trkpt lat="46.58357" lon="6.11468">
        <ele>1160.452</ele>
      </trkpt>
      <trkpt lat="46.58341" lon="6.11447">
        <ele>1162.97</ele>
      </trkpt>
      <trkpt lat="46.58325" lon="6.11433">
        <ele>1166.585</ele>
      </trkpt>
      <trkpt lat="46.58307" lon="6.11417">
        <ele>1169.733</ele>
      </trkpt>
      <trkpt lat="46.58297" lon="6.11408">
        <ele>1170.211</ele>
      </trkpt>
      <trkpt lat="46.5829" lon="6.114">
        <ele>1170.223</ele>
      </trkpt>
      <trkpt lat="46.58281" lon="6.11393">
        <ele>1170.117</ele>
      </trkpt>
      <trkpt lat="46.58269" lon="6.11392">
        <ele>1171.841</ele>
      </trkpt>
      <trkpt lat="46.58256" lon="6.11391">
        <ele>1174.075</ele>
      </trkpt>
      <trkpt lat="46.58245" lon="6.11385">
        <ele>1176.348</ele>
      </trkpt>
      <trkpt lat="46.58238" lon="6.11372">
        <ele>1176.997</ele>
      </trkpt>
      <trkpt lat="46.58232" lon="6.11358">
        <ele>1176.354</ele>
      </trkpt>
      <trkpt lat="46.58222" lon="6.11344">
        <ele>1176.993</ele>
      </trkpt>
      <trkpt lat="46.58207" lon="6.11332">
        <ele>1179.065</ele>
      </trkpt>
      <trkpt lat="46.58198" lon="6.11321">
        <ele>1179.744</ele>
      </trkpt>
      <trkpt lat="46.58188" lon="6.11306">
        <ele>1180.419</ele>
      </trkpt>
      <trkpt lat="46.58183" lon="6.11285">
        <ele>1180.537</ele>
      </trkpt>
      <trkpt lat="46.58178" lon="6.11273">
        <ele>1180.987</ele>
      </trkpt>
      <trkpt lat="46.58166" lon="6.11257">
        <ele>1183.175</ele>
      </trkpt>
      <trkpt lat="46.58157" lon="6.11239">
        <ele>1184.272</ele>
      </trkpt>
      <trkpt lat="46.58146" lon="6.11225">
        <ele>1185.182</ele>
      </trkpt>
      <trkpt lat="46.58126" lon="6.11202">
        <ele>1185.841</ele>
      </trkpt>
      <trkpt lat="46.58117" lon="6.11187">
        <ele>1184.087</ele>
      </trkpt>
      <trkpt lat="46.58111" lon="6.1118">
        <ele>1183.373</ele>
      </trkpt>
      <trkpt lat="46.58098" lon="6.11171">
        <ele>1183.585</ele>
      </trkpt>
      <trkpt lat="46.58084" lon="6.11163">
        <ele>1182.744</ele>
      </trkpt>
      <trkpt lat="46.58077" lon="6.11158">
        <ele>1182.384</ele>
      </trkpt>
      <trkpt lat="46.58071" lon="6.11156">
        <ele>1182.88</ele>
      </trkpt>
      <trkpt lat="46.58064" lon="6.11139">
        <ele>1176.834</ele>
      </trkpt>
      <trkpt lat="46.58061" lon="6.11129">
        <ele>1174.222</ele>
      </trkpt>
      <trkpt lat="46.58056" lon="6.11106">
        <ele>1168.215</ele>
      </trkpt>
      <trkpt lat="46.58058" lon="6.11083">
        <ele>1164.875</ele>
      </trkpt>
      <trkpt lat="46.58059" lon="6.11068">
        <ele>1162.803</ele>
      </trkpt>
      <trkpt lat="46.58059" lon="6.11044">
        <ele>1159.39</ele>
      </trkpt>
      <trkpt lat="46.58061" lon="6.11023">
        <ele>1156.355</ele>
      </trkpt>
      <trkpt lat="46.58067" lon="6.11009">
        <ele>1154.261</ele>
      </trkpt>
      <trkpt lat="46.58077" lon="6.10996">
        <ele>1153.11</ele>
      </trkpt>
      <trkpt lat="46.58085" lon="6.10989">
        <ele>1152.738</ele>
      </trkpt>
      <trkpt lat="46.58091" lon="6.10979">
        <ele>1151.689</ele>
      </trkpt>
      <trkpt lat="46.58097" lon="6.10967">
        <ele>1150.594</ele>
      </trkpt>
      <trkpt lat="46.58099" lon="6.1096">
        <ele>1150.136</ele>
      </trkpt>
      <trkpt lat="46.58103" lon="6.10936">
        <ele>1148.393</ele>
      </trkpt>
      <trkpt lat="46.58104" lon="6.1092">
        <ele>1147.22</ele>
      </trkpt>
      <trkpt lat="46.58105" lon="6.10905">
        <ele>1146.165</ele>
      </trkpt>
      <trkpt lat="46.58104" lon="6.10895">
        <ele>1145.455</ele>
      </trkpt>
      <trkpt lat="46.58103" lon="6.10884">
        <ele>1144.552</ele>
      </trkpt>
      <trkpt lat="46.5808" lon="6.10853">
        <ele>1143.432</ele>
      </trkpt>
      <trkpt lat="46.58068" lon="6.10842">
        <ele>1143.004</ele>
      </trkpt>
      <trkpt lat="46.58045" lon="6.10801">
        <ele>1141.174</ele>
      </trkpt>
      <trkpt lat="46.57997" lon="6.10743">
        <ele>1139.828</ele>
      </trkpt>
      <trkpt lat="46.57979" lon="6.10714">
        <ele>1139.282</ele>
      </trkpt>
      <trkpt lat="46.57969" lon="6.10693">
        <ele>1138.857</ele>
      </trkpt>
      <trkpt lat="46.5796" lon="6.10676">
        <ele>1137.03</ele>
      </trkpt>
      <trkpt lat="46.5795" lon="6.10664">
        <ele>1135.703</ele>
      </trkpt>
      <trkpt lat="46.57941" lon="6.10654">
        <ele>1134.732</ele>
      </trkpt>
      <trkpt lat="46.57932" lon="6.1065">
        <ele>1134.632</ele>
      </trkpt>
      <trkpt lat="46.57924" lon="6.10639">
        <ele>1133.789</ele>
      </trkpt>
      <trkpt lat="46.57917" lon="6.10629">
        <ele>1132.935</ele>
      </trkpt>
      <trkpt lat="46.57912" lon="6.10629">
        <ele>1132.577</ele>
      </trkpt>
      <trkpt lat="46.57904" lon="6.1063">
        <ele>1132.124</ele>
      </trkpt>
      <trkpt lat="46.57898" lon="6.10628">
        <ele>1131.416</ele>
      </trkpt>
      <trkpt lat="46.57893" lon="6.10623">
        <ele>1130.543</ele>
      </trkpt>
      <trkpt lat="46.57888" lon="6.10614">
        <ele>1129.267</ele>
      </trkpt>
      <trkpt lat="46.57881" lon="6.10605">
        <ele>1128.168</ele>
      </trkpt>
      <trkpt lat="46.57874" lon="6.10594">
        <ele>1126.896</ele>
      </trkpt>
      <trkpt lat="46.5787" lon="6.10585">
        <ele>1126.139</ele>
      </trkpt>
      <trkpt lat="46.57867" lon="6.10578">
        <ele>1125.747</ele>
      </trkpt>
      <trkpt lat="46.57857" lon="6.10579">
        <ele>1126.272</ele>
      </trkpt>
      <trkpt lat="46.57839" lon="6.1058">
        <ele>1128.317</ele>
      </trkpt>
      <trkpt lat="46.57829" lon="6.10581">
        <ele>1129.311</ele>
      </trkpt>
      <trkpt lat="46.57813" lon="6.10576">
        <ele>1130.696</ele>
      </trkpt>
      <trkpt lat="46.57801" lon="6.10571">
        <ele>1131.762</ele>
      </trkpt>
      <trkpt lat="46.57792" lon="6.10565">
        <ele>1132.679</ele>
      </trkpt>
      <trkpt lat="46.57779" lon="6.10556">
        <ele>1133.874</ele>
      </trkpt>
      <trkpt lat="46.57767" lon="6.10544">
        <ele>1134.748</ele>
      </trkpt>
      <trkpt lat="46.57755" lon="6.10525">
        <ele>1135.566</ele>
      </trkpt>
      <trkpt lat="46.57737" lon="6.10501">
        <ele>1136.386</ele>
      </trkpt>
      <trkpt lat="46.57727" lon="6.10484">
        <ele>1137.031</ele>
      </trkpt>
      <trkpt lat="46.57715" lon="6.10465">
        <ele>1137.071</ele>
      </trkpt>
      <trkpt lat="46.57706" lon="6.10446">
        <ele>1136.8</ele>
      </trkpt>
      <trkpt lat="46.57689" lon="6.10421">
        <ele>1136.63</ele>
      </trkpt>
      <trkpt lat="46.57674" lon="6.10398">
        <ele>1136.315</ele>
      </trkpt>
      <trkpt lat="46.57659" lon="6.10376">
        <ele>1135.415</ele>
      </trkpt>
      <trkpt lat="46.57646" lon="6.10357">
        <ele>1134.09</ele>
      </trkpt>
      <trkpt lat="46.5763" lon="6.10337">
        <ele>1132.519</ele>
      </trkpt>
      <trkpt lat="46.57618" lon="6.10329">
        <ele>1131.306</ele>
      </trkpt>
      <trkpt lat="46.576" lon="6.10321">
        <ele>1130.177</ele>
      </trkpt>
      <trkpt lat="46.57576" lon="6.10305">
        <ele>1129.233</ele>
      </trkpt>
      <trkpt lat="46.5756" lon="6.10288">
        <ele>1129.657</ele>
      </trkpt>
      <trkpt lat="46.57542" lon="6.10265">
        <ele>1130.962</ele>
      </trkpt>
      <trkpt lat="46.57534" lon="6.10242">
        <ele>1131.007</ele>
      </trkpt>
      <trkpt lat="46.57528" lon="6.10223">
        <ele>1131.009</ele>
      </trkpt>
      <trkpt lat="46.57525" lon="6.10202">
        <ele>1131.26</ele>
      </trkpt>
      <trkpt lat="46.57523" lon="6.10185">
        <ele>1131.504</ele>
      </trkpt>
      <trkpt lat="46.57514" lon="6.1016">
        <ele>1131.617</ele>
      </trkpt>
      <trkpt lat="46.57506" lon="6.10135">
        <ele>1131.303</ele>
      </trkpt>
      <trkpt lat="46.57503" lon="6.10119">
        <ele>1131.55</ele>
      </trkpt>
      <trkpt lat="46.57502" lon="6.10093">
        <ele>1131.764</ele>
      </trkpt>
      <trkpt lat="46.57508" lon="6.10072">
        <ele>1130.686</ele>
      </trkpt>
      <trkpt lat="46.5751" lon="6.1006">
        <ele>1130.117</ele>
      </trkpt>
      <trkpt lat="46.57511" lon="6.10046">
        <ele>1129.274</ele>
      </trkpt>
      <trkpt lat="46.575" lon="6.10012">
        <ele>1128.317</ele>
      </trkpt>
      <trkpt lat="46.57493" lon="6.09989">
        <ele>1126.963</ele>
      </trkpt>
      <trkpt lat="46.57487" lon="6.09972">
        <ele>1126.427</ele>
      </trkpt>
      <trkpt lat="46.57482" lon="6.09951">
        <ele>1125.641</ele>
      </trkpt>
      <trkpt lat="46.57478" lon="6.09934">
        <ele>1125.226</ele>
      </trkpt>
      <trkpt lat="46.57474" lon="6.09918">
        <ele>1124.743</ele>
      </trkpt>
      <trkpt lat="46.57472" lon="6.09906">
        <ele>1124.639</ele>
      </trkpt>
      <trkpt lat="46.57474" lon="6.0989">
        <ele>1123.752</ele>
      </trkpt>
      <trkpt lat="46.57476" lon="6.09865">
        <ele>1122.422</ele>
      </trkpt>
      <trkpt lat="46.57476" lon="6.09846">
        <ele>1121.09</ele>
      </trkpt>
      <trkpt lat="46.57474" lon="6.09838">
        <ele>1120.903</ele>
      </trkpt>
      <trkpt lat="46.57471" lon="6.09826">
        <ele>1120.829</ele>
      </trkpt>
      <trkpt lat="46.57458" lon="6.09812">
        <ele>1121.071</ele>
      </trkpt>
      <trkpt lat="46.57438" lon="6.09801">
        <ele>1120.481</ele>
      </trkpt>
      <trkpt lat="46.57414" lon="6.09791">
        <ele>1119.353</ele>
      </trkpt>
      <trkpt lat="46.57394" lon="6.09781">
        <ele>1117.634</ele>
      </trkpt>
      <trkpt lat="46.57377" lon="6.09775">
        <ele>1117.051</ele>
      </trkpt>
      <trkpt lat="46.57356" lon="6.09767">
        <ele>1116.66</ele>
      </trkpt>
      <trkpt lat="46.57342" lon="6.09766">
        <ele>1117.039</ele>
      </trkpt>
      <trkpt lat="46.57328" lon="6.09759">
        <ele>1116.207</ele>
      </trkpt>
      <trkpt lat="46.57316" lon="6.09758">
        <ele>1115.963</ele>
      </trkpt>
      <trkpt lat="46.57305" lon="6.09744">
        <ele>1114.431</ele>
      </trkpt>
      <trkpt lat="46.57293" lon="6.09729">
        <ele>1114.892</ele>
      </trkpt>
      <trkpt lat="46.57285" lon="6.09704">
        <ele>1114.331</ele>
      </trkpt>
      <trkpt lat="46.57272" lon="6.09673">
        <ele>1114.828</ele>
      </trkpt>
      <trkpt lat="46.57262" lon="6.09648">
        <ele>1114.652</ele>
      </trkpt>
      <trkpt lat="46.57251" lon="6.09621">
        <ele>1113.959</ele>
      </trkpt>
      <trkpt lat="46.57241" lon="6.09604">
        <ele>1113.527</ele>
      </trkpt>
      <trkpt lat="46.57236" lon="6.09588">
        <ele>1112.457</ele>
      </trkpt>
      <trkpt lat="46.57225" lon="6.09569">
        <ele>1111.566</ele>
      </trkpt>
      <trkpt lat="46.57222" lon="6.09549">
        <ele>1109.661</ele>
      </trkpt>
      <trkpt lat="46.57212" lon="6.09524">
        <ele>1109.456</ele>
      </trkpt>
      <trkpt lat="46.57208" lon="6.09507">
        <ele>1108.653</ele>
      </trkpt>
      <trkpt lat="46.57201" lon="6.09487">
        <ele>1107.409</ele>
      </trkpt>
      <trkpt lat="46.57194" lon="6.09472">
        <ele>1105.979</ele>
      </trkpt>
      <trkpt lat="46.57188" lon="6.09462">
        <ele>1104.706</ele>
      </trkpt>
      <trkpt lat="46.57176" lon="6.09453">
        <ele>1103.845</ele>
      </trkpt>
      <trkpt lat="46.57159" lon="6.09434">
        <ele>1101.82</ele>
      </trkpt>
      <trkpt lat="46.57132" lon="6.09409">
        <ele>1100.697</ele>
      </trkpt>
      <trkpt lat="46.57106" lon="6.09381">
        <ele>1099.712</ele>
      </trkpt>
      <trkpt lat="46.57082" lon="6.09355">
        <ele>1098.785</ele>
      </trkpt>
      <trkpt lat="46.57068" lon="6.09334">
        <ele>1098.578</ele>
      </trkpt>
      <trkpt lat="46.57052" lon="6.09317">
        <ele>1099</ele>
      </trkpt>
      <trkpt lat="46.57038" lon="6.093">
        <ele>1098.917</ele>
      </trkpt>
      <trkpt lat="46.5703" lon="6.09278">
        <ele>1098.914</ele>
      </trkpt>
      <trkpt lat="46.57021" lon="6.09267">
        <ele>1099.08</ele>
      </trkpt>
      <trkpt lat="46.57013" lon="6.09254">
        <ele>1099.204</ele>
      </trkpt>
      <trkpt lat="46.57004" lon="6.09247">
        <ele>1099.598</ele>
      </trkpt>
      <trkpt lat="46.56986" lon="6.09239">
        <ele>1100.871</ele>
      </trkpt>
      <trkpt lat="46.5697" lon="6.09233">
        <ele>1101.904</ele>
      </trkpt>
      <trkpt lat="46.56952" lon="6.09222">
        <ele>1102.436</ele>
      </trkpt>
      <trkpt lat="46.56932" lon="6.09211">
        <ele>1102.765</ele>
      </trkpt>
      <trkpt lat="46.56905" lon="6.09192">
        <ele>1102.956</ele>
      </trkpt>
      <trkpt lat="46.56885" lon="6.09171">
        <ele>1103.258</ele>
      </trkpt>
      <trkpt lat="46.56869" lon="6.09151">
        <ele>1104.029</ele>
      </trkpt>
      <trkpt lat="46.56858" lon="6.09129">
        <ele>1104.206</ele>
      </trkpt>
      <trkpt lat="46.56847" lon="6.091">
        <ele>1104.43</ele>
      </trkpt>
      <trkpt lat="46.56834" lon="6.0907">
        <ele>1103.949</ele>
      </trkpt>
      <trkpt lat="46.56826" lon="6.0905">
        <ele>1104.055</ele>
      </trkpt>
      <trkpt lat="46.56819" lon="6.09031">
        <ele>1103.652</ele>
      </trkpt>
      <trkpt lat="46.56813" lon="6.09013">
        <ele>1103.749</ele>
      </trkpt>
      <trkpt lat="46.56807" lon="6.0899">
        <ele>1103.589</ele>
      </trkpt>
      <trkpt lat="46.568" lon="6.08974">
        <ele>1103.46</ele>
      </trkpt>
      <trkpt lat="46.56792" lon="6.08953">
        <ele>1103.633</ele>
      </trkpt>
      <trkpt lat="46.56785" lon="6.08937">
        <ele>1103.502</ele>
      </trkpt>
      <trkpt lat="46.56775" lon="6.08929">
        <ele>1103.538</ele>
      </trkpt>
      <trkpt lat="46.56765" lon="6.08921">
        <ele>1103.635</ele>
      </trkpt>
      <trkpt lat="46.56755" lon="6.08911">
        <ele>1103.61</ele>
      </trkpt>
      <trkpt lat="46.56744" lon="6.08887">
        <ele>1102.662</ele>
      </trkpt>
      <trkpt lat="46.56729" lon="6.08855">
        <ele>1100.788</ele>
      </trkpt>
      <trkpt lat="46.56712" lon="6.08813">
        <ele>1099.277</ele>
      </trkpt>
      <trkpt lat="46.56699" lon="6.08772">
        <ele>1097.775</ele>
      </trkpt>
      <trkpt lat="46.56688" lon="6.08748">
        <ele>1096.926</ele>
      </trkpt>
      <trkpt lat="46.56682" lon="6.0873">
        <ele>1096.264</ele>
      </trkpt>
      <trkpt lat="46.56674" lon="6.087">
        <ele>1095.779</ele>
      </trkpt>
      <trkpt lat="46.56662" lon="6.08671">
        <ele>1095.698</ele>
      </trkpt>
      <trkpt lat="46.56652" lon="6.08649">
        <ele>1096.23</ele>
      </trkpt>
      <trkpt lat="46.56645" lon="6.08627">
        <ele>1096.555</ele>
      </trkpt>
      <trkpt lat="46.56635" lon="6.08607">
        <ele>1097.453</ele>
      </trkpt>
      <trkpt lat="46.56626" lon="6.08585">
        <ele>1097.946</ele>
      </trkpt>
      <trkpt lat="46.56618" lon="6.08564">
        <ele>1098.511</ele>
      </trkpt>
      <trkpt lat="46.56609" lon="6.08534">
        <ele>1099.187</ele>
      </trkpt>
      <trkpt lat="46.56604" lon="6.08514">
        <ele>1099.527</ele>
      </trkpt>
      <trkpt lat="46.56601" lon="6.08494">
        <ele>1099.785</ele>
      </trkpt>
      <trkpt lat="46.56599" lon="6.08479">
        <ele>1099.964</ele>
      </trkpt>
      <trkpt lat="46.566" lon="6.08466">
        <ele>1100</ele>
      </trkpt>
      <trkpt lat="46.566" lon="6.0844">
        <ele>1100</ele>
      </trkpt>
      <trkpt lat="46.56606" lon="6.08422">
        <ele>1100</ele>
      </trkpt>
      <trkpt lat="46.56612" lon="6.08389">
        <ele>1098.892</ele>
      </trkpt>
      <trkpt lat="46.56623" lon="6.08362">
        <ele>1097.564</ele>
      </trkpt>
      <trkpt lat="46.56632" lon="6.08338">
        <ele>1096.397</ele>
      </trkpt>
      <trkpt lat="46.56641" lon="6.08319">
        <ele>1095.938</ele>
      </trkpt>
      <trkpt lat="46.56652" lon="6.08295">
        <ele>1095.545</ele>
      </trkpt>
      <trkpt lat="46.56662" lon="6.08266">
        <ele>1095.109</ele>
      </trkpt>
      <trkpt lat="46.5667" lon="6.08234">
        <ele>1094.731</ele>
      </trkpt>
      <trkpt lat="46.56678" lon="6.08209">
        <ele>1094.184</ele>
      </trkpt>
      <trkpt lat="46.56687" lon="6.08186">
        <ele>1092.976</ele>
      </trkpt>
      <trkpt lat="46.56695" lon="6.08159">
        <ele>1090.704</ele>
      </trkpt>
      <trkpt lat="46.56705" lon="6.08142">
        <ele>1090.066</ele>
      </trkpt>
      <trkpt lat="46.56718" lon="6.08113">
        <ele>1090</ele>
      </trkpt>
      <trkpt lat="46.56727" lon="6.08093">
        <ele>1091.213</ele>
      </trkpt>
      <trkpt lat="46.56729" lon="6.08073">
        <ele>1092.132</ele>
      </trkpt>
      <trkpt lat="46.5673" lon="6.08057">
        <ele>1092.656</ele>
      </trkpt>
      <trkpt lat="46.56718" lon="6.08022">
        <ele>1094.366</ele>
      </trkpt>
      <trkpt lat="46.56704" lon="6.08003">
        <ele>1095.552</ele>
      </trkpt>
      <trkpt lat="46.56694" lon="6.07988">
        <ele>1096.442</ele>
      </trkpt>
      <trkpt lat="46.56689" lon="6.07979">
        <ele>1096.602</ele>
      </trkpt>
      <trkpt lat="46.56674" lon="6.07994">
        <ele>1096.052</ele>
      </trkpt>
      <trkpt lat="46.5666" lon="6.08015">
        <ele>1094.692</ele>
      </trkpt>
      <trkpt lat="46.56647" lon="6.08024">
        <ele>1093.594</ele>
      </trkpt>
      <trkpt lat="46.56638" lon="6.08026">
        <ele>1093.036</ele>
      </trkpt>
      <trkpt lat="46.56626" lon="6.08016">
        <ele>1092.73</ele>
      </trkpt>
      <trkpt lat="46.56614" lon="6.08">
        <ele>1092.302</ele>
      </trkpt>
      <trkpt lat="46.566" lon="6.07976">
        <ele>1090.47</ele>
      </trkpt>
      <trkpt lat="46.56588" lon="6.07946">
        <ele>1088.856</ele>
      </trkpt>
      <trkpt lat="46.56575" lon="6.07916">
        <ele>1087.507</ele>
      </trkpt>
      <trkpt lat="46.56561" lon="6.07879">
        <ele>1084.59</ele>
      </trkpt>
      <trkpt lat="46.56547" lon="6.07858">
        <ele>1081.7</ele>
      </trkpt>
      <trkpt lat="46.5653" lon="6.07851">
        <ele>1079.304</ele>
      </trkpt>
      <trkpt lat="46.56507" lon="6.07857">
        <ele>1078.153</ele>
      </trkpt>
      <trkpt lat="46.56489" lon="6.07867">
        <ele>1077.194</ele>
      </trkpt>
      <trkpt lat="46.56465" lon="6.07879">
        <ele>1075.732</ele>
      </trkpt>
      <trkpt lat="46.56445" lon="6.07881">
        <ele>1075.001</ele>
      </trkpt>
      <trkpt lat="46.5642" lon="6.07879">
        <ele>1075</ele>
      </trkpt>
      <trkpt lat="46.56404" lon="6.07873">
        <ele>1075</ele>
      </trkpt>
      <trkpt lat="46.56386" lon="6.0786">
        <ele>1075.123</ele>
      </trkpt>
      <trkpt lat="46.56362" lon="6.07847">
        <ele>1075.959</ele>
      </trkpt>
      <trkpt lat="46.56343" lon="6.07828">
        <ele>1077.332</ele>
      </trkpt>
      <trkpt lat="46.56325" lon="6.07797">
        <ele>1078.433</ele>
      </trkpt>
      <trkpt lat="46.56314" lon="6.0777">
        <ele>1078.893</ele>
      </trkpt>
      <trkpt lat="46.56306" lon="6.07741">
        <ele>1078.956</ele>
      </trkpt>
      <trkpt lat="46.56298" lon="6.07712">
        <ele>1080.087</ele>
      </trkpt>
      <trkpt lat="46.56295" lon="6.07679">
        <ele>1080.25</ele>
      </trkpt>
      <trkpt lat="46.56294" lon="6.07652">
        <ele>1080.234</ele>
      </trkpt>
      <trkpt lat="46.56297" lon="6.07629">
        <ele>1080.279</ele>
      </trkpt>
      <trkpt lat="46.56305" lon="6.07603">
        <ele>1080.356</ele>
      </trkpt>
      <trkpt lat="46.56317" lon="6.07578">
        <ele>1078.994</ele>
      </trkpt>
      <trkpt lat="46.56324" lon="6.07561">
        <ele>1076.358</ele>
      </trkpt>
      <trkpt lat="46.56328" lon="6.07553">
        <ele>1074.854</ele>
      </trkpt>
      <trkpt lat="46.56336" lon="6.07537">
        <ele>1071.318</ele>
      </trkpt>
      <trkpt lat="46.56342" lon="6.07519">
        <ele>1066.857</ele>
      </trkpt>
      <trkpt lat="46.56341" lon="6.07505">
        <ele>1063.321</ele>
      </trkpt>
      <trkpt lat="46.56347" lon="6.07498">
        <ele>1061.579</ele>
      </trkpt>
      <trkpt lat="46.56347" lon="6.07487">
        <ele>1061.732</ele>
      </trkpt>
      <trkpt lat="46.56344" lon="6.07477">
        <ele>1061.59</ele>
      </trkpt>
      <trkpt lat="46.56333" lon="6.0746">
        <ele>1061.324</ele>
      </trkpt>
      <trkpt lat="46.56317" lon="6.07449">
        <ele>1061.11</ele>
      </trkpt>
      <trkpt lat="46.56303" lon="6.07435">
        <ele>1060.536</ele>
      </trkpt>
      <trkpt lat="46.56288" lon="6.07421">
        <ele>1059.605</ele>
      </trkpt>
      <trkpt lat="46.56275" lon="6.07409">
        <ele>1057.758</ele>
      </trkpt>
      <trkpt lat="46.56259" lon="6.07396">
        <ele>1054.284</ele>
      </trkpt>
      <trkpt lat="46.56244" lon="6.0738">
        <ele>1052.12</ele>
      </trkpt>
      <trkpt lat="46.56227" lon="6.07366">
        <ele>1051.21</ele>
      </trkpt>
      <trkpt lat="46.56215" lon="6.07349">
        <ele>1050.607</ele>
      </trkpt>
      <trkpt lat="46.56205" lon="6.07337">
        <ele>1050.476</ele>
      </trkpt>
      <trkpt lat="46.56185" lon="6.07319">
        <ele>1048.951</ele>
      </trkpt>
      <trkpt lat="46.56174" lon="6.07309">
        <ele>1047.202</ele>
      </trkpt>
      <trkpt lat="46.56166" lon="6.07298">
        <ele>1045.681</ele>
      </trkpt>
      <trkpt lat="46.56154" lon="6.07279">
        <ele>1042.682</ele>
      </trkpt>
      <trkpt lat="46.56136" lon="6.0726">
        <ele>1040</ele>
      </trkpt>
      <trkpt lat="46.56121" lon="6.07238">
        <ele>1040.154</ele>
      </trkpt>
      <trkpt lat="46.56111" lon="6.07223">
        <ele>1040.011</ele>
      </trkpt>
      <trkpt lat="46.56101" lon="6.07202">
        <ele>1040</ele>
      </trkpt>
      <trkpt lat="46.56096" lon="6.07192">
        <ele>1040</ele>
      </trkpt>
      <trkpt lat="46.56085" lon="6.07177">
        <ele>1040</ele>
      </trkpt>
      <trkpt lat="46.5607" lon="6.07155">
        <ele>1038.043</ele>
      </trkpt>
      <trkpt lat="46.56054" lon="6.0714">
        <ele>1035.801</ele>
      </trkpt>
      <trkpt lat="46.56031" lon="6.07106">
        <ele>1031.274</ele>
      </trkpt>
      <trkpt lat="46.56017" lon="6.07094">
        <ele>1030.223</ele>
      </trkpt>
      <trkpt lat="46.56003" lon="6.07075">
        <ele>1030</ele>
      </trkpt>
      <trkpt lat="46.5599" lon="6.07046">
        <ele>1029.639</ele>
      </trkpt>
      <trkpt lat="46.55983" lon="6.07025">
        <ele>1029.381</ele>
      </trkpt>
      <trkpt lat="46.55968" lon="6.06983">
        <ele>1028.914</ele>
      </trkpt>
      <trkpt lat="46.55961" lon="6.06956">
        <ele>1028.029</ele>
      </trkpt>
      <trkpt lat="46.55955" lon="6.06928">
        <ele>1027.36</ele>
      </trkpt>
      <trkpt lat="46.55951" lon="6.0691">
        <ele>1027.022</ele>
      </trkpt>
      <trkpt lat="46.55946" lon="6.06886">
        <ele>1026</ele>
      </trkpt>
      <trkpt lat="46.55939" lon="6.06862">
        <ele>1025.223</ele>
      </trkpt>
      <trkpt lat="46.55932" lon="6.06851">
        <ele>1025.441</ele>
      </trkpt>
      <trkpt lat="46.55919" lon="6.06847">
        <ele>1025.922</ele>
      </trkpt>
      <trkpt lat="46.55906" lon="6.06832">
        <ele>1027.104</ele>
      </trkpt>
      <trkpt lat="46.55895" lon="6.06813">
        <ele>1027.581</ele>
      </trkpt>
      <trkpt lat="46.55888" lon="6.06786">
        <ele>1028.034</ele>
      </trkpt>
      <trkpt lat="46.55881" lon="6.06765">
        <ele>1028.284</ele>
      </trkpt>
      <trkpt lat="46.55875" lon="6.06738">
        <ele>1028.277</ele>
      </trkpt>
      <trkpt lat="46.55872" lon="6.06718">
        <ele>1028.276</ele>
      </trkpt>
      <trkpt lat="46.55867" lon="6.06702">
        <ele>1029.135</ele>
      </trkpt>
      <trkpt lat="46.55863" lon="6.06687">
        <ele>1029.788</ele>
      </trkpt>
      <trkpt lat="46.55856" lon="6.06675">
        <ele>1030</ele>
      </trkpt>
      <trkpt lat="46.5585" lon="6.06653">
        <ele>1030</ele>
      </trkpt>
      <trkpt lat="46.55839" lon="6.06626">
        <ele>1029.64</ele>
      </trkpt>
      <trkpt lat="46.55836" lon="6.06631">
        <ele>1029.734</ele>
      </trkpt>
      <trkpt lat="46.55822" lon="6.06601">
        <ele>1028.829</ele>
      </trkpt>
      <trkpt lat="46.55811" lon="6.06572">
        <ele>1028.373</ele>
      </trkpt>
      <trkpt lat="46.55801" lon="6.06539">
        <ele>1027.964</ele>
      </trkpt>
      <trkpt lat="46.55789" lon="6.06508">
        <ele>1026.642</ele>
      </trkpt>
      <trkpt lat="46.55782" lon="6.06495">
        <ele>1025.544</ele>
      </trkpt>
      <trkpt lat="46.55773" lon="6.06473">
        <ele>1024.698</ele>
      </trkpt>
      <trkpt lat="46.55763" lon="6.06451">
        <ele>1022.763</ele>
      </trkpt>
      <trkpt lat="46.55748" lon="6.06419">
        <ele>1019.11</ele>
      </trkpt>
      <trkpt lat="46.55735" lon="6.06389">
        <ele>1017.329</ele>
      </trkpt>
      <trkpt lat="46.55713" lon="6.06361">
        <ele>1015.003</ele>
      </trkpt>
      <trkpt lat="46.55692" lon="6.06337">
        <ele>1013.409</ele>
      </trkpt>
      <trkpt lat="46.55674" lon="6.06314">
        <ele>1012.613</ele>
      </trkpt>
      <trkpt lat="46.55659" lon="6.06305">
        <ele>1011.975</ele>
      </trkpt>
      <trkpt lat="46.55641" lon="6.06299">
        <ele>1011.534</ele>
      </trkpt>
      <trkpt lat="46.55626" lon="6.06305">
        <ele>1010.991</ele>
      </trkpt>
      <trkpt lat="46.55611" lon="6.06305">
        <ele>1009.981</ele>
      </trkpt>
      <trkpt lat="46.5559" lon="6.06307">
        <ele>1007.848</ele>
      </trkpt>
      <trkpt lat="46.55573" lon="6.06308">
        <ele>1006.073</ele>
      </trkpt>
      <trkpt lat="46.55557" lon="6.06306">
        <ele>1004.258</ele>
      </trkpt>
      <trkpt lat="46.55544" lon="6.06302">
        <ele>1002.413</ele>
      </trkpt>
      <trkpt lat="46.55539" lon="6.06294">
        <ele>1001.184</ele>
      </trkpt>
      <trkpt lat="46.55524" lon="6.0628">
        <ele>998.695</ele>
      </trkpt>
      <trkpt lat="46.55506" lon="6.06256">
        <ele>995.094</ele>
      </trkpt>
      <trkpt lat="46.55471" lon="6.06237">
        <ele>991.649</ele>
      </trkpt>
      <trkpt lat="46.55417" lon="6.06243">
        <ele>994.49</ele>
      </trkpt>
      <trkpt lat="46.55379" lon="6.06237">
        <ele>997.544</ele>
      </trkpt>
      <trkpt lat="46.55352" lon="6.06212">
        <ele>998.606</ele>
      </trkpt>
      <trkpt lat="46.55334" lon="6.06156">
        <ele>994.796</ele>
      </trkpt>
      <trkpt lat="46.55291" lon="6.06107">
        <ele>991.781</ele>
      </trkpt>
      <trkpt lat="46.55273" lon="6.0609">
        <ele>992.11</ele>
      </trkpt>
      <trkpt lat="46.55245" lon="6.06068">
        <ele>993.638</ele>
      </trkpt>
      <trkpt lat="46.55234" lon="6.06044">
        <ele>991.935</ele>
      </trkpt>
      <trkpt lat="46.55197" lon="6.06065">
        <ele>994.949</ele>
      </trkpt>
      <trkpt lat="46.5519" lon="6.06005">
        <ele>990.569</ele>
      </trkpt>
      <trkpt lat="46.55076" lon="6.06047">
        <ele>998.036</ele>
      </trkpt>
      <trkpt lat="46.55055" lon="6.05872">
        <ele>982.456</ele>
      </trkpt>
      <trkpt lat="46.55037" lon="6.05864">
        <ele>984.165</ele>
      </trkpt>
      <trkpt lat="46.55011" lon="6.05853">
        <ele>985.585</ele>
      </trkpt>
      <trkpt lat="46.55016" lon="6.05834">
        <ele>983.831</ele>
      </trkpt>
      <trkpt lat="46.54973" lon="6.05778">
        <ele>983.835</ele>
      </trkpt>
      <trkpt lat="46.54893" lon="6.0575">
        <ele>979.144</ele>
      </trkpt>
      <trkpt lat="46.54839" lon="6.05675">
        <ele>973.419</ele>
      </trkpt>
      <trkpt lat="46.54895" lon="6.05574">
        <ele>969.742</ele>
      </trkpt>
      <trkpt lat="46.54914" lon="6.05556">
        <ele>968.38</ele>
      </trkpt>
      <trkpt lat="46.54934" lon="6.05523">
        <ele>967.904</ele>
      </trkpt>
      <trkpt lat="46.54952" lon="6.05498">
        <ele>967.081</ele>
      </trkpt>
      <trkpt lat="46.54968" lon="6.0547">
        <ele>966.895</ele>
      </trkpt>
      <trkpt lat="46.54979" lon="6.05439">
        <ele>968.054</ele>
      </trkpt>
      <trkpt lat="46.55005" lon="6.05392">
        <ele>970.739</ele>
      </trkpt>
      <trkpt lat="46.55018" lon="6.05347">
        <ele>973.682</ele>
      </trkpt>
      <trkpt lat="46.55034" lon="6.05286">
        <ele>971.841</ele>
      </trkpt>
      <trkpt lat="46.55038" lon="6.05221">
        <ele>961.523</ele>
      </trkpt>
      <trkpt lat="46.55028" lon="6.05188">
        <ele>960.046</ele>
      </trkpt>
      <trkpt lat="46.54945" lon="6.05094">
        <ele>955.761</ele>
      </trkpt>
      <trkpt lat="46.54886" lon="6.05048">
        <ele>950.259</ele>
      </trkpt>
      <trkpt lat="46.54852" lon="6.05055">
        <ele>954.619</ele>
      </trkpt>
      <trkpt lat="46.54799" lon="6.05101">
        <ele>957.622</ele>
      </trkpt>
      <trkpt lat="46.54769" lon="6.05118">
        <ele>957.617</ele>
      </trkpt>
      <trkpt lat="46.54701" lon="6.05071">
        <ele>954.786</ele>
      </trkpt>
      <trkpt lat="46.54654" lon="6.05068">
        <ele>952.905</ele>
      </trkpt>
      <trkpt lat="46.5461" lon="6.05088">
        <ele>950</ele>
      </trkpt>
      <trkpt lat="46.54576" lon="6.05098">
        <ele>949.612</ele>
      </trkpt>
      <trkpt lat="46.54532" lon="6.05066">
        <ele>947.282</ele>
      </trkpt>
      <trkpt lat="46.54486" lon="6.05027">
        <ele>947.952</ele>
      </trkpt>
      <trkpt lat="46.5444" lon="6.04998">
        <ele>948.249</ele>
      </trkpt>
      <trkpt lat="46.54389" lon="6.04965">
        <ele>949.266</ele>
      </trkpt>
      <trkpt lat="46.54365" lon="6.04934">
        <ele>953.419</ele>
      </trkpt>
      <trkpt lat="46.54342" lon="6.0489">
        <ele>955.117</ele>
      </trkpt>
      <trkpt lat="46.54325" lon="6.04863">
        <ele>954.086</ele>
      </trkpt>
      <trkpt lat="46.5431" lon="6.04842">
        <ele>953.309</ele>
      </trkpt>
      <trkpt lat="46.543" lon="6.04805">
        <ele>950.992</ele>
      </trkpt>
      <trkpt lat="46.54292" lon="6.04756">
        <ele>948.422</ele>
      </trkpt>
      <trkpt lat="46.54271" lon="6.04725">
        <ele>944.661</ele>
      </trkpt>
      <trkpt lat="46.54242" lon="6.04707">
        <ele>942.214</ele>
      </trkpt>
      <trkpt lat="46.54219" lon="6.04715">
        <ele>943.365</ele>
      </trkpt>
      <trkpt lat="46.54189" lon="6.04729">
        <ele>942.091</ele>
      </trkpt>
      <trkpt lat="46.54165" lon="6.04724">
        <ele>936.481</ele>
      </trkpt>
      <trkpt lat="46.54149" lon="6.04668">
        <ele>935.254</ele>
      </trkpt>
      <trkpt lat="46.54161" lon="6.04633">
        <ele>933.065</ele>
      </trkpt>
      <trkpt lat="46.54187" lon="6.04602">
        <ele>928.255</ele>
      </trkpt>
      <trkpt lat="46.54194" lon="6.0458">
        <ele>926.756</ele>
      </trkpt>
      <trkpt lat="46.54193" lon="6.0456">
        <ele>925.691</ele>
      </trkpt>
      <trkpt lat="46.54169" lon="6.04516">
        <ele>924.827</ele>
      </trkpt>
      <trkpt lat="46.54142" lon="6.04458">
        <ele>921.017</ele>
      </trkpt>
      <trkpt lat="46.54128" lon="6.04409">
        <ele>918.305</ele>
      </trkpt>
      <trkpt lat="46.54119" lon="6.04339">
        <ele>913.311</ele>
      </trkpt>
      <trkpt lat="46.54104" lon="6.04299">
        <ele>911.676</ele>
      </trkpt>
      <trkpt lat="46.54092" lon="6.04269">
        <ele>908.887</ele>
      </trkpt>
      <trkpt lat="46.54046" lon="6.04233">
        <ele>907.36</ele>
      </trkpt>
      <trkpt lat="46.54006" lon="6.04208">
        <ele>904.418</ele>
      </trkpt>
      <trkpt lat="46.5397" lon="6.04202">
        <ele>904.785</ele>
      </trkpt>
      <trkpt lat="46.53937" lon="6.04177">
        <ele>901.439</ele>
      </trkpt>
      <trkpt lat="46.53906" lon="6.04158">
        <ele>899.258</ele>
      </trkpt>
      <trkpt lat="46.53877" lon="6.0416">
        <ele>902.377</ele>
      </trkpt>
      <trkpt lat="46.53857" lon="6.04165">
        <ele>904.693</ele>
      </trkpt>
      <trkpt lat="46.53843" lon="6.04154">
        <ele>902.473</ele>
      </trkpt>
      <trkpt lat="46.53835" lon="6.04147">
        <ele>900.993</ele>
      </trkpt>
      <trkpt lat="46.53819" lon="6.04143">
        <ele>902.391</ele>
      </trkpt>
      <trkpt lat="46.53775" lon="6.04114">
        <ele>907.961</ele>
      </trkpt>
      <trkpt lat="46.53722" lon="6.04087">
        <ele>913.725</ele>
      </trkpt>
      <trkpt lat="46.5369" lon="6.04095">
        <ele>918.461</ele>
      </trkpt>
      <trkpt lat="46.53663" lon="6.04096">
        <ele>921.109</ele>
      </trkpt>
      <trkpt lat="46.53636" lon="6.04091">
        <ele>922.515</ele>
      </trkpt>
      <trkpt lat="46.5361" lon="6.0407">
        <ele>923.506</ele>
      </trkpt>
      <trkpt lat="46.53589" lon="6.04019">
        <ele>924.658</ele>
      </trkpt>
      <trkpt lat="46.53565" lon="6.03992">
        <ele>927.868</ele>
      </trkpt>
      <trkpt lat="46.53518" lon="6.03969">
        <ele>933.724</ele>
      </trkpt>
      <trkpt lat="46.53452" lon="6.03932">
        <ele>937.314</ele>
      </trkpt>
      <trkpt lat="46.53421" lon="6.03913">
        <ele>942.206</ele>
      </trkpt>
      <trkpt lat="46.53383" lon="6.03855">
        <ele>946.302</ele>
      </trkpt>
      <trkpt lat="46.53325" lon="6.03812">
        <ele>950.817</ele>
      </trkpt>
      <trkpt lat="46.53279" lon="6.03783">
        <ele>958.185</ele>
      </trkpt>
      <trkpt lat="46.53241" lon="6.03767">
        <ele>962.844</ele>
      </trkpt>
      <trkpt lat="46.53202" lon="6.03725">
        <ele>964.711</ele>
      </trkpt>
      <trkpt lat="46.53166" lon="6.03716">
        <ele>970.185</ele>
      </trkpt>
      <trkpt lat="46.53102" lon="6.03679">
        <ele>971.187</ele>
      </trkpt>
      <trkpt lat="46.53083" lon="6.03636">
        <ele>970.751</ele>
      </trkpt>
      <trkpt lat="46.53056" lon="6.03582">
        <ele>968.758</ele>
      </trkpt>
      <trkpt lat="46.53015" lon="6.0353">
        <ele>965.652</ele>
      </trkpt>
      <trkpt lat="46.52933" lon="6.03479">
        <ele>961.405</ele>
      </trkpt>
      <trkpt lat="46.52861" lon="6.03421">
        <ele>958.988</ele>
      </trkpt>
      <trkpt lat="46.52775" lon="6.03354">
        <ele>950.412</ele>
      </trkpt>
      <trkpt lat="46.52729" lon="6.03383">
        <ele>946.217</ele>
      </trkpt>
      <trkpt lat="46.52675" lon="6.03379">
        <ele>946.327</ele>
      </trkpt>
      <trkpt lat="46.52602" lon="6.03352">
        <ele>943.845</ele>
      </trkpt>
      <trkpt lat="46.52579" lon="6.0337">
        <ele>946.325</ele>
      </trkpt>
      <trkpt lat="46.52548" lon="6.0342">
        <ele>947.271</ele>
      </trkpt>
      <trkpt lat="46.52523" lon="6.03431">
        <ele>946.703</ele>
      </trkpt>
      <trkpt lat="46.52481" lon="6.03409">
        <ele>943.05</ele>
      </trkpt>
      <trkpt lat="46.52437" lon="6.03373">
        <ele>941.09</ele>
      </trkpt>
      <trkpt lat="46.52436" lon="6.03327">
        <ele>932.064</ele>
      </trkpt>
      <trkpt lat="46.52439" lon="6.03308">
        <ele>928.342</ele>
      </trkpt>
      <trkpt lat="46.5241" lon="6.03286">
        <ele>927.45</ele>
      </trkpt>
      <trkpt lat="46.5242" lon="6.03271">
        <ele>924.522</ele>
      </trkpt>
      <trkpt lat="46.52449" lon="6.03263">
        <ele>920.38</ele>
      </trkpt>
      <trkpt lat="46.52412" lon="6.03244">
        <ele>918.541</ele>
      </trkpt>
      <trkpt lat="46.52385" lon="6.03223">
        <ele>908.593</ele>
      </trkpt>
      <trkpt lat="46.52406" lon="6.03208">
        <ele>907.816</ele>
      </trkpt>
      <trkpt lat="46.52452" lon="6.03188">
        <ele>902.502</ele>
      </trkpt>
      <trkpt lat="46.5248" lon="6.03206">
        <ele>901.834</ele>
      </trkpt>
      <trkpt lat="46.52492" lon="6.03191">
        <ele>896.579</ele>
      </trkpt>
      <trkpt lat="46.52468" lon="6.0316">
        <ele>892.954</ele>
      </trkpt>
      <trkpt lat="46.5244" lon="6.03125">
        <ele>888.786</ele>
      </trkpt>
      <trkpt lat="46.52407" lon="6.03103">
        <ele>885.178</ele>
      </trkpt>
      <trkpt lat="46.52385" lon="6.03105">
        <ele>884.401</ele>
      </trkpt>
      <trkpt lat="46.52348" lon="6.03139">
        <ele>885.502</ele>
      </trkpt>
      <trkpt lat="46.52305" lon="6.03119">
        <ele>876.08</ele>
      </trkpt>
      <trkpt lat="46.52248" lon="6.03093">
        <ele>870.49</ele>
      </trkpt>
      <trkpt lat="46.52212" lon="6.03077">
        <ele>867.691</ele>
      </trkpt>
      <trkpt lat="46.5219" lon="6.03079">
        <ele>867.4</ele>
      </trkpt>
      <trkpt lat="46.5216" lon="6.03093">
        <ele>869.74</ele>
      </trkpt>
      <trkpt lat="46.52142" lon="6.03082">
        <ele>865.89</ele>
      </trkpt>
      <trkpt lat="46.52137" lon="6.03049">
        <ele>859.515</ele>
      </trkpt>
      <trkpt lat="46.52103" lon="6.0304">
        <ele>852.695</ele>
      </trkpt>
      <trkpt lat="46.52085" lon="6.03052">
        <ele>854.85</ele>
      </trkpt>
      <trkpt lat="46.52073" lon="6.03077">
        <ele>865.326</ele>
      </trkpt>
      <trkpt lat="46.52014" lon="6.03086">
        <ele>874.806</ele>
      </trkpt>
      <trkpt lat="46.51944" lon="6.03095">
        <ele>890.62</ele>
      </trkpt>
      <trkpt lat="46.51862" lon="6.03102">
        <ele>912.185</ele>
      </trkpt>
      <trkpt lat="46.51811" lon="6.03086">
        <ele>915.023</ele>
      </trkpt>
      <trkpt lat="46.51752" lon="6.03101">
        <ele>942.918</ele>
      </trkpt>
      <trkpt lat="46.517" lon="6.03098">
        <ele>956.05</ele>
      </trkpt>
      <trkpt lat="46.51638" lon="6.03084">
        <ele>962.378</ele>
      </trkpt>
      <trkpt lat="46.51608" lon="6.03095">
        <ele>971.208</ele>
      </trkpt>
      <trkpt lat="46.51607" lon="6.0314">
        <ele>977.767</ele>
      </trkpt>
      <trkpt lat="46.51617" lon="6.03174">
        <ele>976.976</ele>
      </trkpt>
      <trkpt lat="46.51661" lon="6.03196">
        <ele>982.867</ele>
      </trkpt>
      <trkpt lat="46.5167" lon="6.0321">
        <ele>983.725</ele>
      </trkpt>
      <trkpt lat="46.51652" lon="6.03277">
        <ele>979.819</ele>
      </trkpt>
      <trkpt lat="46.51639" lon="6.03335">
        <ele>981.902</ele>
      </trkpt>
      <trkpt lat="46.51619" lon="6.03397">
        <ele>975.072</ele>
      </trkpt>
      <trkpt lat="46.51595" lon="6.03454">
        <ele>977.835</ele>
      </trkpt>
      <trkpt lat="46.5155" lon="6.03518">
        <ele>984.455</ele>
      </trkpt>
      <trkpt lat="46.51495" lon="6.03586">
        <ele>990.636</ele>
      </trkpt>
      <trkpt lat="46.51456" lon="6.03627">
        <ele>994.589</ele>
      </trkpt>
      <trkpt lat="46.51417" lon="6.03675">
        <ele>1001.94</ele>
      </trkpt>
      <trkpt lat="46.51363" lon="6.03707">
        <ele>1010.411</ele>
      </trkpt>
      <trkpt lat="46.51287" lon="6.03732">
        <ele>1019.106</ele>
      </trkpt>
      <trkpt lat="46.51233" lon="6.03738">
        <ele>1023.104</ele>
      </trkpt>
      <trkpt lat="46.5113" lon="6.03721">
        <ele>1029.35</ele>
      </trkpt>
      <trkpt lat="46.51089" lon="6.0378">
        <ele>1035.041</ele>
      </trkpt>
      <trkpt lat="46.51058" lon="6.03814">
        <ele>1038.592</ele>
      </trkpt>
      <trkpt lat="46.51028" lon="6.03844">
        <ele>1039.412</ele>
      </trkpt>
      <trkpt lat="46.50991" lon="6.03855">
        <ele>1042.023</ele>
      </trkpt>
      <trkpt lat="46.50956" lon="6.03846">
        <ele>1042.237</ele>
      </trkpt>
      <trkpt lat="46.50914" lon="6.03863">
        <ele>1041.79</ele>
      </trkpt>
      <trkpt lat="46.50921" lon="6.03879">
        <ele>1043.461</ele>
      </trkpt>
      <trkpt lat="46.5091" lon="6.03921">
        <ele>1046.786</ele>
      </trkpt>
      <trkpt lat="46.50871" lon="6.03948">
        <ele>1046.799</ele>
      </trkpt>
      <trkpt lat="46.50839" lon="6.03959">
        <ele>1048.049</ele>
      </trkpt>
      <trkpt lat="46.508" lon="6.03985">
        <ele>1049.287</ele>
      </trkpt>
      <trkpt lat="46.50744" lon="6.03982">
        <ele>1054.228</ele>
      </trkpt>
      <trkpt lat="46.50666" lon="6.04022">
        <ele>1061.248</ele>
      </trkpt>
      <trkpt lat="46.50613" lon="6.04054">
        <ele>1065.812</ele>
      </trkpt>
      <trkpt lat="46.50572" lon="6.04077">
        <ele>1071.254</ele>
      </trkpt>
      <trkpt lat="46.50526" lon="6.04104">
        <ele>1075.521</ele>
      </trkpt>
      <trkpt lat="46.50492" lon="6.04121">
        <ele>1076.449</ele>
      </trkpt>
      <trkpt lat="46.50458" lon="6.04125">
        <ele>1074.944</ele>
      </trkpt>
      <trkpt lat="46.50445" lon="6.04163">
        <ele>1081.428</ele>
      </trkpt>
      <trkpt lat="46.50442" lon="6.04209">
        <ele>1087.792</ele>
      </trkpt>
      <trkpt lat="46.50455" lon="6.04216">
        <ele>1088.833</ele>
      </trkpt>
      <trkpt lat="46.50488" lon="6.04232">
        <ele>1089.949</ele>
      </trkpt>
      <trkpt lat="46.50515" lon="6.0425">
        <ele>1092.93</ele>
      </trkpt>
      <trkpt lat="46.50533" lon="6.0429">
        <ele>1099.759</ele>
      </trkpt>
      <trkpt lat="46.50556" lon="6.04305">
        <ele>1101.855</ele>
      </trkpt>
      <trkpt lat="46.50618" lon="6.04319">
        <ele>1103.012</ele>
      </trkpt>
      <trkpt lat="46.50651" lon="6.04347">
        <ele>1106.47</ele>
      </trkpt>
      <trkpt lat="46.50675" lon="6.04378">
        <ele>1110.245</ele>
      </trkpt>
      <trkpt lat="46.50705" lon="6.04406">
        <ele>1112.319</ele>
      </trkpt>
      <trkpt lat="46.50729" lon="6.04447">
        <ele>1117.322</ele>
      </trkpt>
      <trkpt lat="46.50747" lon="6.04455">
        <ele>1121.59</ele>
      </trkpt>
      <trkpt lat="46.50813" lon="6.0442">
        <ele>1123.51</ele>
      </trkpt>
      <trkpt lat="46.5086" lon="6.04413">
        <ele>1125.391</ele>
      </trkpt>
      <trkpt lat="46.50894" lon="6.04432">
        <ele>1133.132</ele>
      </trkpt>
      <trkpt lat="46.50946" lon="6.04423">
        <ele>1135.613</ele>
      </trkpt>
      <trkpt lat="46.50973" lon="6.04411">
        <ele>1132.897</ele>
      </trkpt>
      <trkpt lat="46.51013" lon="6.04434">
        <ele>1139.89</ele>
      </trkpt>
      <trkpt lat="46.51075" lon="6.04464">
        <ele>1148.828</ele>
      </trkpt>
      <trkpt lat="46.5112" lon="6.04474">
        <ele>1151.437</ele>
      </trkpt>
      <trkpt lat="46.51175" lon="6.04445">
        <ele>1153.457</ele>
      </trkpt>
      <trkpt lat="46.51209" lon="6.04441">
        <ele>1158.536</ele>
      </trkpt>
      <trkpt lat="46.51225" lon="6.04566">
        <ele>1166.305</ele>
      </trkpt>
      <trkpt lat="46.51249" lon="6.04642">
        <ele>1169.633</ele>
      </trkpt>
      <trkpt lat="46.51271" lon="6.04683">
        <ele>1170.21</ele>
      </trkpt>
      <trkpt lat="46.5127" lon="6.04764">
        <ele>1175.682</ele>
      </trkpt>
      <trkpt lat="46.51285" lon="6.04847">
        <ele>1180.938</ele>
      </trkpt>
      <trkpt lat="46.51268" lon="6.0496">
        <ele>1186.73</ele>
      </trkpt>
      <trkpt lat="46.5125" lon="6.05024">
        <ele>1189.746</ele>
      </trkpt>
      <trkpt lat="46.51237" lon="6.05092">
        <ele>1194.113</ele>
      </trkpt>
      <trkpt lat="46.51249" lon="6.05128">
        <ele>1197.219</ele>
      </trkpt>
      <trkpt lat="46.51246" lon="6.05213">
        <ele>1206.688</ele>
      </trkpt>
      <trkpt lat="46.51244" lon="6.05301">
        <ele>1212.248</ele>
      </trkpt>
      <trkpt lat="46.51213" lon="6.05396">
        <ele>1220.18</ele>
      </trkpt>
      <trkpt lat="46.51172" lon="6.05417">
        <ele>1225.381</ele>
      </trkpt>
      <trkpt lat="46.51146" lon="6.05408">
        <ele>1227.365</ele>
      </trkpt>
      <trkpt lat="46.51125" lon="6.0543">
        <ele>1231.478</ele>
      </trkpt>
      <trkpt lat="46.51116" lon="6.05484">
        <ele>1235.351</ele>
      </trkpt>
      <trkpt lat="46.5111" lon="6.05543">
        <ele>1239.617</ele>
      </trkpt>
      <trkpt lat="46.51084" lon="6.05564">
        <ele>1241.259</ele>
      </trkpt>
      <trkpt lat="46.51061" lon="6.05591">
        <ele>1243.633</ele>
      </trkpt>
      <trkpt lat="46.51053" lon="6.05624">
        <ele>1244.336</ele>
      </trkpt>
      <trkpt lat="46.51004" lon="6.05601">
        <ele>1249.183</ele>
      </trkpt>
      <trkpt lat="46.50947" lon="6.05548">
        <ele>1258.602</ele>
      </trkpt>
      <trkpt lat="46.5091" lon="6.05513">
        <ele>1259.455</ele>
      </trkpt>
      <trkpt lat="46.50902" lon="6.05486">
        <ele>1258.762</ele>
      </trkpt>
      <trkpt lat="46.50876" lon="6.05465">
        <ele>1260.227</ele>
      </trkpt>
      <trkpt lat="46.50847" lon="6.0545">
        <ele>1263.77</ele>
      </trkpt>
      <trkpt lat="46.50841" lon="6.0541">
        <ele>1267.311</ele>
      </trkpt>
      <trkpt lat="46.5082" lon="6.05376">
        <ele>1270</ele>
      </trkpt>
      <trkpt lat="46.50775" lon="6.05383">
        <ele>1269.137</ele>
      </trkpt>
      <trkpt lat="46.50745" lon="6.0541">
        <ele>1269.565</ele>
      </trkpt>
      <trkpt lat="46.50704" lon="6.05407">
        <ele>1269.881</ele>
      </trkpt>
      <trkpt lat="46.50676" lon="6.05389">
        <ele>1272.05</ele>
      </trkpt>
      <trkpt lat="46.50646" lon="6.05384">
        <ele>1275.461</ele>
      </trkpt>
      <trkpt lat="46.50617" lon="6.05388">
        <ele>1280.043</ele>
      </trkpt>
      <trkpt lat="46.5059" lon="6.05377">
        <ele>1281.531</ele>
      </trkpt>
      <trkpt lat="46.50566" lon="6.05352">
        <ele>1276.844</ele>
      </trkpt>
      <trkpt lat="46.50491" lon="6.0538">
        <ele>1280.384</ele>
      </trkpt>
      <trkpt lat="46.50464" lon="6.05443">
        <ele>1283.832</ele>
      </trkpt>
      <trkpt lat="46.50409" lon="6.05482">
        <ele>1278.783</ele>
      </trkpt>
      <trkpt lat="46.50338" lon="6.05532">
        <ele>1271.807</ele>
      </trkpt>
      <trkpt lat="46.50242" lon="6.05636">
        <ele>1263.271</ele>
      </trkpt>
      <trkpt lat="46.50211" lon="6.0569">
        <ele>1256.842</ele>
      </trkpt>
      <trkpt lat="46.50216" lon="6.05739">
        <ele>1254.196</ele>
      </trkpt>
      <trkpt lat="46.50251" lon="6.05784">
        <ele>1257.433</ele>
      </trkpt>
      <trkpt lat="46.5026" lon="6.0584">
        <ele>1253.743</ele>
      </trkpt>
      <trkpt lat="46.50273" lon="6.05913">
        <ele>1250.795</ele>
      </trkpt>
      <trkpt lat="46.50285" lon="6.05962">
        <ele>1249.354</ele>
      </trkpt>
      <trkpt lat="46.50282" lon="6.05969">
        <ele>1248.657</ele>
      </trkpt>
      <trkpt lat="46.50277" lon="6.05957">
        <ele>1248.471</ele>
      </trkpt>
      <trkpt lat="46.50269" lon="6.05953">
        <ele>1247.77</ele>
      </trkpt>
      <trkpt lat="46.50258" lon="6.05954">
        <ele>1246.52</ele>
      </trkpt>
      <trkpt lat="46.50247" lon="6.05955">
        <ele>1245.347</ele>
      </trkpt>
      <trkpt lat="46.50242" lon="6.05954">
        <ele>1244.979</ele>
      </trkpt>
      <trkpt lat="46.50233" lon="6.05957">
        <ele>1244.055</ele>
      </trkpt>
      <trkpt lat="46.50225" lon="6.05953">
        <ele>1243.629</ele>
      </trkpt>
      <trkpt lat="46.50221" lon="6.05945">
        <ele>1243.856</ele>
      </trkpt>
      <trkpt lat="46.50218" lon="6.05935">
        <ele>1243.896</ele>
      </trkpt>
      <trkpt lat="46.50216" lon="6.05922">
        <ele>1244.173</ele>
      </trkpt>
      <trkpt lat="46.50216" lon="6.05908">
        <ele>1244.569</ele>
      </trkpt>
      <trkpt lat="46.50212" lon="6.05894">
        <ele>1244.674</ele>
      </trkpt>
      <trkpt lat="46.50203" lon="6.0588">
        <ele>1244.24</ele>
      </trkpt>
      <trkpt lat="46.50195" lon="6.05874">
        <ele>1243.603</ele>
      </trkpt>
      <trkpt lat="46.50186" lon="6.05867">
        <ele>1242.335</ele>
      </trkpt>
      <trkpt lat="46.50182" lon="6.05867">
        <ele>1241.538</ele>
      </trkpt>
      <trkpt lat="46.50173" lon="6.05868">
        <ele>1239.874</ele>
      </trkpt>
      <trkpt lat="46.50166" lon="6.05869">
        <ele>1238.604</ele>
      </trkpt>
      <trkpt lat="46.5016" lon="6.05874">
        <ele>1237.305</ele>
      </trkpt>
      <trkpt lat="46.50148" lon="6.05884">
        <ele>1234.166</ele>
      </trkpt>
      <trkpt lat="46.50137" lon="6.05898">
        <ele>1230.972</ele>
      </trkpt>
      <trkpt lat="46.50127" lon="6.05911">
        <ele>1227.864</ele>
      </trkpt>
      <trkpt lat="46.50124" lon="6.05912">
        <ele>1227.251</ele>
      </trkpt>
      <trkpt lat="46.50119" lon="6.05915">
        <ele>1225.768</ele>
      </trkpt>
      <trkpt lat="46.50107" lon="6.05908">
        <ele>1224.412</ele>
      </trkpt>
      <trkpt lat="46.50097" lon="6.05895">
        <ele>1223.804</ele>
      </trkpt>
      <trkpt lat="46.50084" lon="6.05893">
        <ele>1221.874</ele>
      </trkpt>
      <trkpt lat="46.50072" lon="6.05887">
        <ele>1221.323</ele>
      </trkpt>
      <trkpt lat="46.50062" lon="6.05887">
        <ele>1220.587</ele>
      </trkpt>
      <trkpt lat="46.50051" lon="6.05884">
        <ele>1220.143</ele>
      </trkpt>
      <trkpt lat="46.50035" lon="6.05873">
        <ele>1220.154</ele>
      </trkpt>
      <trkpt lat="46.50025" lon="6.05868">
        <ele>1219.935</ele>
      </trkpt>
      <trkpt lat="46.50015" lon="6.05859">
        <ele>1219.521</ele>
      </trkpt>
      <trkpt lat="46.50007" lon="6.05857">
        <ele>1219.239</ele>
      </trkpt>
      <trkpt lat="46.49997" lon="6.05851">
        <ele>1218.6</ele>
      </trkpt>
      <trkpt lat="46.49982" lon="6.05845">
        <ele>1216.717</ele>
      </trkpt>
      <trkpt lat="46.4997" lon="6.05841">
        <ele>1215.083</ele>
      </trkpt>
      <trkpt lat="46.49958" lon="6.05835">
        <ele>1213.59</ele>
      </trkpt>
      <trkpt lat="46.49944" lon="6.05823">
        <ele>1211.303</ele>
      </trkpt>
      <trkpt lat="46.49932" lon="6.05811">
        <ele>1210.919</ele>
      </trkpt>
      <trkpt lat="46.49919" lon="6.05805">
        <ele>1210.883</ele>
      </trkpt>
      <trkpt lat="46.49906" lon="6.05801">
        <ele>1211.716</ele>
      </trkpt>
      <trkpt lat="46.49895" lon="6.058">
        <ele>1212.537</ele>
      </trkpt>
      <trkpt lat="46.49881" lon="6.05802">
        <ele>1213.915</ele>
      </trkpt>
      <trkpt lat="46.49874" lon="6.05808">
        <ele>1215.513</ele>
      </trkpt>
      <trkpt lat="46.49859" lon="6.05814">
        <ele>1217.142</ele>
      </trkpt>
      <trkpt lat="46.49846" lon="6.05824">
        <ele>1218.15</ele>
      </trkpt>
      <trkpt lat="46.49839" lon="6.05829">
        <ele>1218.538</ele>
      </trkpt>
      <trkpt lat="46.49829" lon="6.05831">
        <ele>1218.038</ele>
      </trkpt>
      <trkpt lat="46.49817" lon="6.05834">
        <ele>1216.694</ele>
      </trkpt>
      <trkpt lat="46.49805" lon="6.05828">
        <ele>1214.519</ele>
      </trkpt>
      <trkpt lat="46.49795" lon="6.05824">
        <ele>1212.678</ele>
      </trkpt>
      <trkpt lat="46.49779" lon="6.05805">
        <ele>1210.094</ele>
      </trkpt>
      <trkpt lat="46.49762" lon="6.05791">
        <ele>1208.881</ele>
      </trkpt>
      <trkpt lat="46.4975" lon="6.05782">
        <ele>1208.01</ele>
      </trkpt>
      <trkpt lat="46.49736" lon="6.0577">
        <ele>1206.395</ele>
      </trkpt>
      <trkpt lat="46.49727" lon="6.05761">
        <ele>1205.137</ele>
      </trkpt>
      <trkpt lat="46.49718" lon="6.05746">
        <ele>1203.67</ele>
      </trkpt>
      <trkpt lat="46.49706" lon="6.05735">
        <ele>1202.854</ele>
      </trkpt>
      <trkpt lat="46.49698" lon="6.05726">
        <ele>1202.269</ele>
      </trkpt>
      <trkpt lat="46.49693" lon="6.05716">
        <ele>1201.662</ele>
      </trkpt>
      <trkpt lat="46.49686" lon="6.05708">
        <ele>1201.03</ele>
      </trkpt>
      <trkpt lat="46.49675" lon="6.0571">
        <ele>1200.457</ele>
      </trkpt>
      <trkpt lat="46.49663" lon="6.05709">
        <ele>1200</ele>
      </trkpt>
      <trkpt lat="46.4965" lon="6.05699">
        <ele>1200</ele>
      </trkpt>
      <trkpt lat="46.4964" lon="6.05685">
        <ele>1200</ele>
      </trkpt>
      <trkpt lat="46.49624" lon="6.05669">
        <ele>1199.042</ele>
      </trkpt>
      <trkpt lat="46.49614" lon="6.05657">
        <ele>1197.11</ele>
      </trkpt>
      <trkpt lat="46.49598" lon="6.05646">
        <ele>1195.648</ele>
      </trkpt>
      <trkpt lat="46.49581" lon="6.0564">
        <ele>1194.935</ele>
      </trkpt>
      <trkpt lat="46.49568" lon="6.05634">
        <ele>1193.655</ele>
      </trkpt>
      <trkpt lat="46.49555" lon="6.05625">
        <ele>1192.454</ele>
      </trkpt>
      <trkpt lat="46.49544" lon="6.05615">
        <ele>1191.289</ele>
      </trkpt>
      <trkpt lat="46.49538" lon="6.05606">
        <ele>1190.634</ele>
      </trkpt>
      <trkpt lat="46.49523" lon="6.05581">
        <ele>1190</ele>
      </trkpt>
      <trkpt lat="46.49512" lon="6.05559">
        <ele>1190</ele>
      </trkpt>
      <trkpt lat="46.49507" lon="6.05545">
        <ele>1189.345</ele>
      </trkpt>
      <trkpt lat="46.49495" lon="6.05528">
        <ele>1187.659</ele>
      </trkpt>
      <trkpt lat="46.49486" lon="6.05516">
        <ele>1185.961</ele>
      </trkpt>
      <trkpt lat="46.4947" lon="6.05513">
        <ele>1184.816</ele>
      </trkpt>
      <trkpt lat="46.49456" lon="6.05516">
        <ele>1184.212</ele>
      </trkpt>
      <trkpt lat="46.49443" lon="6.05521">
        <ele>1183.664</ele>
      </trkpt>
      <trkpt lat="46.49437" lon="6.05526">
        <ele>1183.091</ele>
      </trkpt>
      <trkpt lat="46.49435" lon="6.05526">
        <ele>1182.971</ele>
      </trkpt>
      <trkpt lat="46.49426" lon="6.05525">
        <ele>1182.018</ele>
      </trkpt>
      <trkpt lat="46.49416" lon="6.05523">
        <ele>1180.955</ele>
      </trkpt>
      <trkpt lat="46.49408" lon="6.05514">
        <ele>1179.7</ele>
      </trkpt>
      <trkpt lat="46.49402" lon="6.05505">
        <ele>1178.929</ele>
      </trkpt>
      <trkpt lat="46.49395" lon="6.0549">
        <ele>1178.065</ele>
      </trkpt>
      <trkpt lat="46.4939" lon="6.05483">
        <ele>1177.661</ele>
      </trkpt>
      <trkpt lat="46.4938" lon="6.05476">
        <ele>1176.139</ele>
      </trkpt>
      <trkpt lat="46.49372" lon="6.05474">
        <ele>1174.82</ele>
      </trkpt>
      <trkpt lat="46.49362" lon="6.05468">
        <ele>1173.131</ele>
      </trkpt>
      <trkpt lat="46.49358" lon="6.05452">
        <ele>1172.651</ele>
      </trkpt>
      <trkpt lat="46.49354" lon="6.05439">
        <ele>1172.054</ele>
      </trkpt>
      <trkpt lat="46.4935" lon="6.05424">
        <ele>1171.332</ele>
      </trkpt>
      <trkpt lat="46.49345" lon="6.05404">
        <ele>1169.616</ele>
      </trkpt>
      <trkpt lat="46.4934" lon="6.05385">
        <ele>1167.154</ele>
      </trkpt>
      <trkpt lat="46.49335" lon="6.05369">
        <ele>1163.627</ele>
      </trkpt>
      <trkpt lat="46.49326" lon="6.0535">
        <ele>1160.571</ele>
      </trkpt>
      <trkpt lat="46.49321" lon="6.0534">
        <ele>1159.285</ele>
      </trkpt>
      <trkpt lat="46.49308" lon="6.05329">
        <ele>1157.811</ele>
      </trkpt>
      <trkpt lat="46.49303" lon="6.05328">
        <ele>1157.422</ele>
      </trkpt>
      <trkpt lat="46.49291" lon="6.05322">
        <ele>1156.132</ele>
      </trkpt>
      <trkpt lat="46.49278" lon="6.05318">
        <ele>1154.868</ele>
      </trkpt>
      <trkpt lat="46.49268" lon="6.05314">
        <ele>1153.76</ele>
      </trkpt>
      <trkpt lat="46.49251" lon="6.05316">
        <ele>1152.439</ele>
      </trkpt>
      <trkpt lat="46.4924" lon="6.0532">
        <ele>1151.561</ele>
      </trkpt>
      <trkpt lat="46.49228" lon="6.05332">
        <ele>1150.595</ele>
      </trkpt>
      <trkpt lat="46.49217" lon="6.05346">
        <ele>1149.752</ele>
      </trkpt>
      <trkpt lat="46.49212" lon="6.0536">
        <ele>1149.197</ele>
      </trkpt>
      <trkpt lat="46.49203" lon="6.0537">
        <ele>1147.832</ele>
      </trkpt>
      <trkpt lat="46.4919" lon="6.05369">
        <ele>1145.372</ele>
      </trkpt>
      <trkpt lat="46.49177" lon="6.05368">
        <ele>1143.117</ele>
      </trkpt>
      <trkpt lat="46.49162" lon="6.05359">
        <ele>1140.973</ele>
      </trkpt>
      <trkpt lat="46.49151" lon="6.05343">
        <ele>1140.992</ele>
      </trkpt>
      <trkpt lat="46.49142" lon="6.05334">
        <ele>1140.346</ele>
      </trkpt>
      <trkpt lat="46.49135" lon="6.05321">
        <ele>1140.234</ele>
      </trkpt>
      <trkpt lat="46.49123" lon="6.0531">
        <ele>1139.764</ele>
      </trkpt>
      <trkpt lat="46.49105" lon="6.05316">
        <ele>1137.336</ele>
      </trkpt>
      <trkpt lat="46.49088" lon="6.05314">
        <ele>1133.09</ele>
      </trkpt>
      <trkpt lat="46.49077" lon="6.05307">
        <ele>1130.808</ele>
      </trkpt>
      <trkpt lat="46.49064" lon="6.05301">
        <ele>1128.495</ele>
      </trkpt>
      <trkpt lat="46.4905" lon="6.05299">
        <ele>1125.683</ele>
      </trkpt>
      <trkpt lat="46.49036" lon="6.05286">
        <ele>1122.229</ele>
      </trkpt>
      <trkpt lat="46.49025" lon="6.05279">
        <ele>1119.864</ele>
      </trkpt>
      <trkpt lat="46.49015" lon="6.05243">
        <ele>1116.841</ele>
      </trkpt>
      <trkpt lat="46.49009" lon="6.05219">
        <ele>1114.638</ele>
      </trkpt>
      <trkpt lat="46.49" lon="6.05211">
        <ele>1112.12</ele>
      </trkpt>
      <trkpt lat="46.48989" lon="6.05205">
        <ele>1108.821</ele>
      </trkpt>
      <trkpt lat="46.48977" lon="6.05198">
        <ele>1104.676</ele>
      </trkpt>
      <trkpt lat="46.48965" lon="6.05184">
        <ele>1100.527</ele>
      </trkpt>
      <trkpt lat="46.48953" lon="6.05175">
        <ele>1097.531</ele>
      </trkpt>
      <trkpt lat="46.48945" lon="6.0516">
        <ele>1093.325</ele>
      </trkpt>
      <trkpt lat="46.48937" lon="6.05152">
        <ele>1090.393</ele>
      </trkpt>
      <trkpt lat="46.48932" lon="6.05137">
        <ele>1086.522</ele>
      </trkpt>
      <trkpt lat="46.48934" lon="6.0512">
        <ele>1084.548</ele>
      </trkpt>
      <trkpt lat="46.4893" lon="6.05108">
        <ele>1082.343</ele>
      </trkpt>
      <trkpt lat="46.48913" lon="6.05123">
        <ele>1082.384</ele>
      </trkpt>
      <trkpt lat="46.48898" lon="6.05148">
        <ele>1083.034</ele>
      </trkpt>
      <trkpt lat="46.48894" lon="6.05177">
        <ele>1083.661</ele>
      </trkpt>
      <trkpt lat="46.48891" lon="6.05208">
        <ele>1083.793</ele>
      </trkpt>
      <trkpt lat="46.48887" lon="6.05255">
        <ele>1081.007</ele>
      </trkpt>
      <trkpt lat="46.48894" lon="6.05293">
        <ele>1082.47</ele>
      </trkpt>
      <trkpt lat="46.48889" lon="6.05325">
        <ele>1080.084</ele>
      </trkpt>
      <trkpt lat="46.48886" lon="6.05356">
        <ele>1079.528</ele>
      </trkpt>
      <trkpt lat="46.48871" lon="6.0541">
        <ele>1080.883</ele>
      </trkpt>
      <trkpt lat="46.48868" lon="6.05426">
        <ele>1082.112</ele>
      </trkpt>
      <trkpt lat="46.48861" lon="6.05455">
        <ele>1084.189</ele>
      </trkpt>
      <trkpt lat="46.48851" lon="6.05474">
        <ele>1085.373</ele>
      </trkpt>
      <trkpt lat="46.4884" lon="6.05496">
        <ele>1086.181</ele>
      </trkpt>
      <trkpt lat="46.48832" lon="6.05517">
        <ele>1085.92</ele>
      </trkpt>
      <trkpt lat="46.48835" lon="6.05535">
        <ele>1085.921</ele>
      </trkpt>
      <trkpt lat="46.48843" lon="6.05557">
        <ele>1086.033</ele>
      </trkpt>
      <trkpt lat="46.48853" lon="6.0558">
        <ele>1086.2</ele>
      </trkpt>
      <trkpt lat="46.48861" lon="6.05602">
        <ele>1086.313</ele>
      </trkpt>
      <trkpt lat="46.48866" lon="6.05624">
        <ele>1086.146</ele>
      </trkpt>
      <trkpt lat="46.4887" lon="6.05645">
        <ele>1086.017</ele>
      </trkpt>
      <trkpt lat="46.48875" lon="6.05671">
        <ele>1085.752</ele>
      </trkpt>
      <trkpt lat="46.48876" lon="6.05696">
        <ele>1085.105</ele>
      </trkpt>
      <trkpt lat="46.48878" lon="6.05716">
        <ele>1085.05</ele>
      </trkpt>
      <trkpt lat="46.48877" lon="6.05724">
        <ele>1084.981</ele>
      </trkpt>
    </trkseg>
  </trk>
</gpx>